<?xml version="1.0" encoding="UTF-8"?>
<gpx version="1.1" creator="2bulu-scraper" xmlns="http://www.topografix.com/GPX/1/1">
  <metadata><name>翠屏山石像生林路线图</name><desc>source: 2bulu.com trackId=82472104; exported 2026-09-01T19:12:50.939Z</desc>
    <bounds minlat="28.76321" minlon="104.598432" maxlat="28.775614" maxlon="104.61415"/>
    <link href="https://www.2bulu.com/track/t-WoGuu6ou5ijp%252FR2KBg5Tzw%253D%253D.htm"><text>2bulu 源页面</text></link>
  </metadata>
  <wpt lat="28.771074" lon="104.61415"><ele>294</ele><name></name></wpt>
  <wpt lat="28.771387" lon="104.613477"><ele>299</ele><name>继续上去</name></wpt>
  <wpt lat="28.771283" lon="104.613228"><ele>301</ele><name>看火车</name></wpt>
  <wpt lat="28.771658" lon="104.612427"><ele>321</ele><name>继续</name></wpt>
  <wpt lat="28.771695" lon="104.612325"><ele>325</ele><name>继续往上走着</name></wpt>
  <wpt lat="28.772593" lon="104.611264"><ele>344</ele><name>继续</name></wpt>
  <wpt lat="28.774085" lon="104.605456"><ele>397</ele><name>左转上山</name></wpt>
  <wpt lat="28.77398" lon="104.605523"><ele>401</ele><name>走着</name></wpt>
  <wpt lat="28.773701" lon="104.605527"><ele>411</ele><name>keep going</name></wpt>
  <wpt lat="28.772804" lon="104.605748"><ele>444</ele><name>蒲葵</name></wpt>
  <wpt lat="28.772353" lon="104.605805"><ele>459</ele><name></name></wpt>
  <wpt lat="28.771674" lon="104.606364"><ele>472</ele><name>继续</name></wpt>
  <wpt lat="28.771141" lon="104.608691"><ele>470</ele><name>权威</name></wpt>
  <wpt lat="28.769628" lon="104.606505"><ele>480</ele><name>下山</name></wpt>
  <wpt lat="28.769266" lon="104.60679"><ele>457</ele><name>哪吒行宫 下山</name></wpt>
  <wpt lat="28.768997" lon="104.606989"><ele>445</ele><name>从福 继续下山</name></wpt>
  <wpt lat="28.768889" lon="104.607258"><ele>434</ele><name>继续</name></wpt>
  <wpt lat="28.768412" lon="104.607073"><ele>430</ele><name>右侧进入</name></wpt>
  <wpt lat="28.765555" lon="104.602481"><ele>437</ele><name>从这边过来 别从下面 服了 下面没路而且很不好走</name></wpt>
  <wpt lat="28.765369" lon="104.602563"><ele>437</ele><name></name></wpt>
  <wpt lat="28.764991" lon="104.601929"><ele>440</ele><name></name></wpt>
  <wpt lat="28.764944" lon="104.601847"><ele>437</ele><name></name></wpt>
  <wpt lat="28.764785" lon="104.601646"><ele>432</ele><name></name></wpt>
  <wpt lat="28.774857" lon="104.60707"><ele>414</ele><name>冲</name></wpt>
  <wpt lat="28.774009" lon="104.608583"><ele>405</ele><name>真有辆车</name></wpt>
  <wpt lat="28.773846" lon="104.609047"><ele>397</ele><name>走石头阶</name></wpt>
  <wpt lat="28.773719" lon="104.610581"><ele>375</ele><name>出来了 家人们</name></wpt>
  <wpt lat="28.773717" lon="104.610734"><ele>373</ele><name></name></wpt>
  <wpt lat="28.775142" lon="104.611466"><ele>391</ele><name></name></wpt>
  <wpt lat="28.775107" lon="104.611509"><ele>391</ele><name>斋饭点</name></wpt>
  <wpt lat="28.775167" lon="104.612095"><ele>389</ele><name>施工 得换路</name></wpt>
  <wpt lat="28.774315" lon="104.612821"><ele>377</ele><name>This way</name></wpt>
  <wpt lat="28.772724" lon="104.611889"><ele>346</ele><name>左转</name></wpt>
  <wpt lat="28.772125" lon="104.612192"><ele>328</ele><name>走起</name></wpt>
  <wpt lat="28.771413" lon="104.612687"><ele>310</ele><name>回</name></wpt>
  <wpt lat="28.771273" lon="104.613002"><ele>305</ele><name></name></wpt>
  <wpt lat="28.771259" lon="104.613179"><ele>300</ele><name></name></wpt>
  <trk><name>翠屏山石像生林路线图</name>
      <trkseg>
        <trkpt lat="28.771074" lon="104.61415"><ele>294.10062</ele><time>2026-04-17T22:29:07.000Z</time></trkpt>
        <trkpt lat="28.770963" lon="104.614022"><ele>295.6216</ele><time>2026-04-17T22:29:34.000Z</time></trkpt>
        <trkpt lat="28.770943" lon="104.61397"><ele>294.99353</ele><time>2026-04-17T22:29:38.000Z</time></trkpt>
        <trkpt lat="28.770956" lon="104.613919"><ele>295.1617</ele><time>2026-04-17T22:29:42.000Z</time></trkpt>
        <trkpt lat="28.770997" lon="104.613875"><ele>294.89713</ele><time>2026-04-17T22:29:46.000Z</time></trkpt>
        <trkpt lat="28.771017" lon="104.613819"><ele>294.69968</ele><time>2026-04-17T22:29:50.000Z</time></trkpt>
        <trkpt lat="28.77105" lon="104.613769"><ele>294.73477</ele><time>2026-04-17T22:29:54.000Z</time></trkpt>
        <trkpt lat="28.771088" lon="104.613732"><ele>294.59567</ele><time>2026-04-17T22:29:58.000Z</time></trkpt>
        <trkpt lat="28.771126" lon="104.613683"><ele>295.9319</ele><time>2026-04-17T22:30:02.000Z</time></trkpt>
        <trkpt lat="28.771174" lon="104.613677"><ele>296.9156</ele><time>2026-04-17T22:30:07.000Z</time></trkpt>
        <trkpt lat="28.771229" lon="104.613668"><ele>298.1032</ele><time>2026-04-17T22:30:11.000Z</time></trkpt>
        <trkpt lat="28.771275" lon="104.613658"><ele>296.4935</ele><time>2026-04-17T22:30:14.000Z</time></trkpt>
        <trkpt lat="28.771321" lon="104.613644"><ele>297.2842</ele><time>2026-04-17T22:30:18.000Z</time></trkpt>
        <trkpt lat="28.771365" lon="104.613618"><ele>297.2018</ele><time>2026-04-17T22:30:21.000Z</time></trkpt>
        <trkpt lat="28.771326" lon="104.613531"><ele>298.1708</ele><time>2026-04-17T22:30:31.000Z</time></trkpt>
        <trkpt lat="28.771278" lon="104.613532"><ele>298.60806</ele><time>2026-04-17T22:30:35.000Z</time></trkpt>
        <trkpt lat="28.771234" lon="104.613555"><ele>298.61926</ele><time>2026-04-17T22:30:39.000Z</time></trkpt>
        <trkpt lat="28.7712" lon="104.613589"><ele>298.258</ele><time>2026-04-17T22:30:42.000Z</time></trkpt>
        <trkpt lat="28.771154" lon="104.613613"><ele>297.55573</ele><time>2026-04-17T22:30:46.000Z</time></trkpt>
        <trkpt lat="28.771112" lon="104.613578"><ele>296.72015</ele><time>2026-04-17T22:30:52.000Z</time></trkpt>
        <trkpt lat="28.77113" lon="104.613529"><ele>296.81583</ele><time>2026-04-17T22:30:57.000Z</time></trkpt>
        <trkpt lat="28.771175" lon="104.613522"><ele>296.71375</ele><time>2026-04-17T22:31:01.000Z</time></trkpt>
        <trkpt lat="28.771228" lon="104.613518"><ele>297.2876</ele><time>2026-04-17T22:31:05.000Z</time></trkpt>
        <trkpt lat="28.771284" lon="104.613513"><ele>297.57025</ele><time>2026-04-17T22:31:09.000Z</time></trkpt>
        <trkpt lat="28.771336" lon="104.61349"><ele>297.97495</ele><time>2026-04-17T22:31:14.000Z</time></trkpt>
        <trkpt lat="28.771387" lon="104.613477"><ele>298.8161</ele><time>2026-04-17T22:31:18.000Z</time></trkpt>
        <trkpt lat="28.77144" lon="104.613456"><ele>299.07367</ele><time>2026-04-17T22:31:22.000Z</time></trkpt>
        <trkpt lat="28.771479" lon="104.613423"><ele>299.56265</ele><time>2026-04-17T22:31:29.000Z</time></trkpt>
        <trkpt lat="28.771498" lon="104.613366"><ele>300.60995</ele><time>2026-04-17T22:31:34.000Z</time></trkpt>
        <trkpt lat="28.771474" lon="104.613311"><ele>301.34888</ele><time>2026-04-17T22:31:39.000Z</time></trkpt>
        <trkpt lat="28.771385" lon="104.613338"><ele>300.80734</ele><time>2026-04-17T22:31:47.000Z</time></trkpt>
        <trkpt lat="28.771336" lon="104.613377"><ele>300.29385</ele><time>2026-04-17T22:31:52.000Z</time></trkpt>
        <trkpt lat="28.771293" lon="104.61341"><ele>300.304</ele><time>2026-04-17T22:31:56.000Z</time></trkpt>
        <trkpt lat="28.771249" lon="104.613447"><ele>300.15265</ele><time>2026-04-17T22:32:00.000Z</time></trkpt>
        <trkpt lat="28.771203" lon="104.613433"><ele>300.18265</ele><time>2026-04-17T22:32:05.000Z</time></trkpt>
        <trkpt lat="28.771232" lon="104.613329"><ele>300.53116</ele><time>2026-04-17T22:32:14.000Z</time></trkpt>
        <trkpt lat="28.77126" lon="104.613278"><ele>300.4582</ele><time>2026-04-17T22:32:18.000Z</time></trkpt>
        <trkpt lat="28.771283" lon="104.613228"><ele>300.96216</ele><time>2026-04-17T22:32:22.000Z</time></trkpt>
        <trkpt lat="28.77129" lon="104.613118"><ele>300.10437</ele><time>2026-04-17T22:32:41.000Z</time></trkpt>
        <trkpt lat="28.771286" lon="104.613055"><ele>300.29587</ele><time>2026-04-17T22:32:47.000Z</time></trkpt>
        <trkpt lat="28.771287" lon="104.612988"><ele>301.37408</ele><time>2026-04-17T22:32:52.000Z</time></trkpt>
        <trkpt lat="28.771296" lon="104.612928"><ele>302.93256</ele><time>2026-04-17T22:32:56.000Z</time></trkpt>
        <trkpt lat="28.771343" lon="104.612839"><ele>305.7629</ele><time>2026-04-17T22:33:02.000Z</time></trkpt>
        <trkpt lat="28.771352" lon="104.612779"><ele>306.96786</ele><time>2026-04-17T22:33:06.000Z</time></trkpt>
        <trkpt lat="28.771363" lon="104.612714"><ele>308.23444</ele><time>2026-04-17T22:33:11.000Z</time></trkpt>
        <trkpt lat="28.77138" lon="104.612662"><ele>309.73096</ele><time>2026-04-17T22:33:15.000Z</time></trkpt>
        <trkpt lat="28.771399" lon="104.612602"><ele>311.5647</ele><time>2026-04-17T22:33:20.000Z</time></trkpt>
        <trkpt lat="28.771431" lon="104.612565"><ele>312.90152</ele><time>2026-04-17T22:33:24.000Z</time></trkpt>
        <trkpt lat="28.771478" lon="104.612552"><ele>314.72305</ele><time>2026-04-17T22:33:28.000Z</time></trkpt>
        <trkpt lat="28.771528" lon="104.612518"><ele>314.9603</ele><time>2026-04-17T22:33:33.000Z</time></trkpt>
        <trkpt lat="28.771568" lon="104.612468"><ele>317.31467</ele><time>2026-04-17T22:33:38.000Z</time></trkpt>
        <trkpt lat="28.771615" lon="104.612451"><ele>318.606</ele><time>2026-04-17T22:33:42.000Z</time></trkpt>
        <trkpt lat="28.771658" lon="104.612427"><ele>320.59103</ele><time>2026-04-17T22:33:46.000Z</time></trkpt>
        <trkpt lat="28.771603" lon="104.612343"><ele>323.06088</ele><time>2026-04-17T22:34:22.000Z</time></trkpt>
        <trkpt lat="28.771559" lon="104.61237"><ele>323.28616</ele><time>2026-04-17T22:34:26.000Z</time></trkpt>
        <trkpt lat="28.771509" lon="104.612378"><ele>323.12833</ele><time>2026-04-17T22:34:32.000Z</time></trkpt>
        <trkpt lat="28.771377" lon="104.612438"><ele>323.69064</ele><time>2026-04-17T22:34:42.000Z</time></trkpt>
        <trkpt lat="28.771332" lon="104.612464"><ele>323.49896</ele><time>2026-04-17T22:34:46.000Z</time></trkpt>
        <trkpt lat="28.771306" lon="104.612515"><ele>323.2737</ele><time>2026-04-17T22:34:50.000Z</time></trkpt>
        <trkpt lat="28.77134" lon="104.612563"><ele>322.51727</ele><time>2026-04-17T22:34:53.000Z</time></trkpt>
        <trkpt lat="28.77143" lon="104.612499"><ele>321.55264</ele><time>2026-04-17T22:35:02.000Z</time></trkpt>
        <trkpt lat="28.771466" lon="104.612465"><ele>321.37225</ele><time>2026-04-17T22:35:06.000Z</time></trkpt>
        <trkpt lat="28.77151" lon="104.612439"><ele>322.35425</ele><time>2026-04-17T22:35:10.000Z</time></trkpt>
        <trkpt lat="28.771557" lon="104.612415"><ele>324.4144</ele><time>2026-04-17T22:35:14.000Z</time></trkpt>
        <trkpt lat="28.771606" lon="104.612393"><ele>325.97223</ele><time>2026-04-17T22:35:18.000Z</time></trkpt>
        <trkpt lat="28.771657" lon="104.612364"><ele>325.27994</ele><time>2026-04-17T22:35:23.000Z</time></trkpt>
        <trkpt lat="28.771695" lon="104.612325"><ele>324.92642</ele><time>2026-04-17T22:35:27.000Z</time></trkpt>
        <trkpt lat="28.771731" lon="104.612285"><ele>325.82602</ele><time>2026-04-17T22:35:31.000Z</time></trkpt>
        <trkpt lat="28.771781" lon="104.612258"><ele>325.9258</ele><time>2026-04-17T22:35:36.000Z</time></trkpt>
        <trkpt lat="28.771829" lon="104.612226"><ele>326.5764</ele><time>2026-04-17T22:35:41.000Z</time></trkpt>
        <trkpt lat="28.771873" lon="104.61219"><ele>327.59753</ele><time>2026-04-17T22:35:46.000Z</time></trkpt>
        <trkpt lat="28.771911" lon="104.612152"><ele>328.40607</ele><time>2026-04-17T22:35:50.000Z</time></trkpt>
        <trkpt lat="28.771934" lon="104.612104"><ele>328.83582</ele><time>2026-04-17T22:35:54.000Z</time></trkpt>
        <trkpt lat="28.771967" lon="104.612061"><ele>329.37988</ele><time>2026-04-17T22:35:59.000Z</time></trkpt>
        <trkpt lat="28.772009" lon="104.612039"><ele>331.29474</ele><time>2026-04-17T22:36:02.000Z</time></trkpt>
        <trkpt lat="28.772046" lon="104.612006"><ele>331.15665</ele><time>2026-04-17T22:36:06.000Z</time></trkpt>
        <trkpt lat="28.772093" lon="104.611974"><ele>331.12222</ele><time>2026-04-17T22:36:10.000Z</time></trkpt>
        <trkpt lat="28.772136" lon="104.611937"><ele>330.95407</ele><time>2026-04-17T22:36:14.000Z</time></trkpt>
        <trkpt lat="28.772173" lon="104.611905"><ele>331.09998</ele><time>2026-04-17T22:36:17.000Z</time></trkpt>
        <trkpt lat="28.772188" lon="104.611853"><ele>327.61652</ele><time>2026-04-17T22:36:21.000Z</time></trkpt>
        <trkpt lat="28.772199" lon="104.611797"><ele>328.0796</ele><time>2026-04-17T22:36:25.000Z</time></trkpt>
        <trkpt lat="28.772212" lon="104.611742"><ele>328.96497</ele><time>2026-04-17T22:36:29.000Z</time></trkpt>
        <trkpt lat="28.772229" lon="104.611692"><ele>330.06668</ele><time>2026-04-17T22:36:33.000Z</time></trkpt>
        <trkpt lat="28.772243" lon="104.611643"><ele>329.9481</ele><time>2026-04-17T22:36:37.000Z</time></trkpt>
        <trkpt lat="28.77226" lon="104.611593"><ele>332.7606</ele><time>2026-04-17T22:36:42.000Z</time></trkpt>
        <trkpt lat="28.772296" lon="104.611556"><ele>335.08673</ele><time>2026-04-17T22:36:45.000Z</time></trkpt>
        <trkpt lat="28.772337" lon="104.611513"><ele>334.8133</ele><time>2026-04-17T22:36:48.000Z</time></trkpt>
        <trkpt lat="28.772371" lon="104.611474"><ele>336.66104</ele><time>2026-04-17T22:36:53.000Z</time></trkpt>
        <trkpt lat="28.772419" lon="104.611451"><ele>337.55682</ele><time>2026-04-17T22:36:57.000Z</time></trkpt>
        <trkpt lat="28.772463" lon="104.611433"><ele>339.23758</ele><time>2026-04-17T22:37:00.000Z</time></trkpt>
        <trkpt lat="28.772508" lon="104.611397"><ele>337.75974</ele><time>2026-04-17T22:37:05.000Z</time></trkpt>
        <trkpt lat="28.772544" lon="104.611361"><ele>337.00217</ele><time>2026-04-17T22:37:09.000Z</time></trkpt>
        <trkpt lat="28.77259" lon="104.611332"><ele>338.77274</ele><time>2026-04-17T22:37:17.000Z</time></trkpt>
        <trkpt lat="28.772643" lon="104.611289"><ele>339.1206</ele><time>2026-04-17T22:37:22.000Z</time></trkpt>
        <trkpt lat="28.772661" lon="104.611232"><ele>339.5548</ele><time>2026-04-17T22:37:26.000Z</time></trkpt>
        <trkpt lat="28.772672" lon="104.61118"><ele>339.87994</ele><time>2026-04-17T22:37:28.000Z</time></trkpt>
        <trkpt lat="28.772575" lon="104.611203"><ele>346.25937</ele><time>2026-04-17T22:37:49.000Z</time></trkpt>
        <trkpt lat="28.77268" lon="104.611223"><ele>341.0354</ele><time>2026-04-17T22:38:08.000Z</time></trkpt>
        <trkpt lat="28.772651" lon="104.611065"><ele>342.01654</ele><time>2026-04-17T22:38:19.000Z</time></trkpt>
        <trkpt lat="28.772512" lon="104.61109"><ele>347.69678</ele><time>2026-04-17T22:38:30.000Z</time></trkpt>
        <trkpt lat="28.772544" lon="104.611284"><ele>346.98965</ele><time>2026-04-17T22:38:44.000Z</time></trkpt>
        <trkpt lat="28.772643" lon="104.611235"><ele>342.7695</ele><time>2026-04-17T22:39:03.000Z</time></trkpt>
        <trkpt lat="28.772674" lon="104.611193"><ele>343.1853</ele><time>2026-04-17T22:39:07.000Z</time></trkpt>
        <trkpt lat="28.772701" lon="104.611152"><ele>343.37936</ele><time>2026-04-17T22:39:11.000Z</time></trkpt>
        <trkpt lat="28.772723" lon="104.611096"><ele>343.7569</ele><time>2026-04-17T22:39:15.000Z</time></trkpt>
        <trkpt lat="28.772741" lon="104.611048"><ele>344.61874</ele><time>2026-04-17T22:39:19.000Z</time></trkpt>
        <trkpt lat="28.772763" lon="104.610998"><ele>344.96643</ele><time>2026-04-17T22:39:23.000Z</time></trkpt>
        <trkpt lat="28.772796" lon="104.610955"><ele>345.1059</ele><time>2026-04-17T22:39:28.000Z</time></trkpt>
        <trkpt lat="28.77284" lon="104.610927"><ele>345.88477</ele><time>2026-04-17T22:39:32.000Z</time></trkpt>
        <trkpt lat="28.772885" lon="104.610901"><ele>348.09125</ele><time>2026-04-17T22:39:36.000Z</time></trkpt>
        <trkpt lat="28.77293" lon="104.610867"><ele>349.2782</ele><time>2026-04-17T22:39:40.000Z</time></trkpt>
        <trkpt lat="28.77298" lon="104.610839"><ele>349.39062</ele><time>2026-04-17T22:39:44.000Z</time></trkpt>
        <trkpt lat="28.773015" lon="104.610802"><ele>351.3678</ele><time>2026-04-17T22:39:49.000Z</time></trkpt>
        <trkpt lat="28.773062" lon="104.610783"><ele>352.7014</ele><time>2026-04-17T22:39:53.000Z</time></trkpt>
        <trkpt lat="28.773111" lon="104.61077"><ele>351.91583</ele><time>2026-04-17T22:39:57.000Z</time></trkpt>
        <trkpt lat="28.77316" lon="104.61076"><ele>351.22195</ele><time>2026-04-17T22:40:01.000Z</time></trkpt>
        <trkpt lat="28.773209" lon="104.610779"><ele>348.961</ele><time>2026-04-17T22:40:05.000Z</time></trkpt>
        <trkpt lat="28.773258" lon="104.610789"><ele>349.0469</ele><time>2026-04-17T22:40:09.000Z</time></trkpt>
        <trkpt lat="28.773308" lon="104.610786"><ele>350.35944</ele><time>2026-04-17T22:40:12.000Z</time></trkpt>
        <trkpt lat="28.773298" lon="104.610666"><ele>352.58115</ele><time>2026-04-17T22:40:22.000Z</time></trkpt>
        <trkpt lat="28.773271" lon="104.610618"><ele>354.8949</ele><time>2026-04-17T22:40:26.000Z</time></trkpt>
        <trkpt lat="28.773274" lon="104.610559"><ele>356.37198</ele><time>2026-04-17T22:40:30.000Z</time></trkpt>
        <trkpt lat="28.773291" lon="104.610509"><ele>360.3176</ele><time>2026-04-17T22:40:34.000Z</time></trkpt>
        <trkpt lat="28.773281" lon="104.610453"><ele>364.0448</ele><time>2026-04-17T22:40:38.000Z</time></trkpt>
        <trkpt lat="28.773128" lon="104.610329"><ele>366.68906</ele><time>2026-04-17T22:40:52.000Z</time></trkpt>
        <trkpt lat="28.773108" lon="104.610271"><ele>368.549</ele><time>2026-04-17T22:40:56.000Z</time></trkpt>
        <trkpt lat="28.773121" lon="104.610204"><ele>367.9141</ele><time>2026-04-17T22:41:00.000Z</time></trkpt>
        <trkpt lat="28.773133" lon="104.610147"><ele>370.6818</ele><time>2026-04-17T22:41:04.000Z</time></trkpt>
        <trkpt lat="28.773141" lon="104.610088"><ele>373.49527</ele><time>2026-04-17T22:41:11.000Z</time></trkpt>
        <trkpt lat="28.77311" lon="104.610046"><ele>375.26566</ele><time>2026-04-17T22:41:15.000Z</time></trkpt>
        <trkpt lat="28.773094" lon="104.609992"><ele>375.60654</ele><time>2026-04-17T22:41:20.000Z</time></trkpt>
        <trkpt lat="28.773068" lon="104.609946"><ele>376.33102</ele><time>2026-04-17T22:41:24.000Z</time></trkpt>
        <trkpt lat="28.77305" lon="104.609885"><ele>376.75427</ele><time>2026-04-17T22:41:28.000Z</time></trkpt>
        <trkpt lat="28.773037" lon="104.609833"><ele>376.74557</ele><time>2026-04-17T22:41:32.000Z</time></trkpt>
        <trkpt lat="28.773045" lon="104.609775"><ele>378.60785</ele><time>2026-04-17T22:41:38.000Z</time></trkpt>
        <trkpt lat="28.773067" lon="104.609717"><ele>380.86362</ele><time>2026-04-17T22:41:43.000Z</time></trkpt>
        <trkpt lat="28.773083" lon="104.609661"><ele>380.41498</ele><time>2026-04-17T22:41:47.000Z</time></trkpt>
        <trkpt lat="28.773061" lon="104.609588"><ele>382.29816</ele><time>2026-04-17T22:41:51.000Z</time></trkpt>
        <trkpt lat="28.773043" lon="104.609528"><ele>380.5653</ele><time>2026-04-17T22:41:56.000Z</time></trkpt>
        <trkpt lat="28.773057" lon="104.609477"><ele>381.10916</ele><time>2026-04-17T22:42:00.000Z</time></trkpt>
        <trkpt lat="28.773088" lon="104.609436"><ele>381.98328</ele><time>2026-04-17T22:42:05.000Z</time></trkpt>
        <trkpt lat="28.773107" lon="104.609256"><ele>380.40433</ele><time>2026-04-17T22:42:15.000Z</time></trkpt>
        <trkpt lat="28.773115" lon="104.609191"><ele>379.44653</ele><time>2026-04-17T22:42:19.000Z</time></trkpt>
        <trkpt lat="28.773104" lon="104.609139"><ele>379.4999</ele><time>2026-04-17T22:42:22.000Z</time></trkpt>
        <trkpt lat="28.773121" lon="104.609089"><ele>379.09842</ele><time>2026-04-17T22:42:27.000Z</time></trkpt>
        <trkpt lat="28.773142" lon="104.60897"><ele>379.37683</ele><time>2026-04-17T22:42:34.000Z</time></trkpt>
        <trkpt lat="28.773155" lon="104.608918"><ele>378.54752</ele><time>2026-04-17T22:42:43.000Z</time></trkpt>
        <trkpt lat="28.773196" lon="104.60887"><ele>377.91644</ele><time>2026-04-17T22:42:49.000Z</time></trkpt>
        <trkpt lat="28.773236" lon="104.608827"><ele>377.74493</ele><time>2026-04-17T22:42:52.000Z</time></trkpt>
        <trkpt lat="28.773281" lon="104.608789"><ele>377.64505</ele><time>2026-04-17T22:42:55.000Z</time></trkpt>
        <trkpt lat="28.77331" lon="104.608749"><ele>378.14957</ele><time>2026-04-17T22:43:00.000Z</time></trkpt>
        <trkpt lat="28.773335" lon="104.608703"><ele>378.86786</ele><time>2026-04-17T22:43:05.000Z</time></trkpt>
        <trkpt lat="28.773365" lon="104.608664"><ele>379.65387</ele><time>2026-04-17T22:43:10.000Z</time></trkpt>
        <trkpt lat="28.773447" lon="104.608593"><ele>381.5999</ele><time>2026-04-17T22:43:16.000Z</time></trkpt>
        <trkpt lat="28.773495" lon="104.608495"><ele>385.3654</ele><time>2026-04-17T22:43:28.000Z</time></trkpt>
        <trkpt lat="28.773513" lon="104.608438"><ele>386.51025</ele><time>2026-04-17T22:43:32.000Z</time></trkpt>
        <trkpt lat="28.773505" lon="104.60833"><ele>387.12888</ele><time>2026-04-17T22:43:38.000Z</time></trkpt>
        <trkpt lat="28.773527" lon="104.608277"><ele>387.1992</ele><time>2026-04-17T22:43:42.000Z</time></trkpt>
        <trkpt lat="28.773561" lon="104.608226"><ele>387.11127</ele><time>2026-04-17T22:43:45.000Z</time></trkpt>
        <trkpt lat="28.773635" lon="104.608019"><ele>388.26422</ele><time>2026-04-17T22:44:03.000Z</time></trkpt>
        <trkpt lat="28.773665" lon="104.607971"><ele>389.03705</ele><time>2026-04-17T22:44:09.000Z</time></trkpt>
        <trkpt lat="28.773714" lon="104.60794"><ele>389.29044</ele><time>2026-04-17T22:44:13.000Z</time></trkpt>
        <trkpt lat="28.77374" lon="104.607897"><ele>389.87317</ele><time>2026-04-17T22:44:16.000Z</time></trkpt>
        <trkpt lat="28.773744" lon="104.607844"><ele>390.8383</ele><time>2026-04-17T22:44:20.000Z</time></trkpt>
        <trkpt lat="28.773708" lon="104.607809"><ele>390.3256</ele><time>2026-04-17T22:44:24.000Z</time></trkpt>
        <trkpt lat="28.773662" lon="104.607843"><ele>390.44864</ele><time>2026-04-17T22:44:27.000Z</time></trkpt>
        <trkpt lat="28.773616" lon="104.607847"><ele>389.6261</ele><time>2026-04-17T22:44:30.000Z</time></trkpt>
        <trkpt lat="28.773575" lon="104.607873"><ele>388.8252</ele><time>2026-04-17T22:44:35.000Z</time></trkpt>
        <trkpt lat="28.773535" lon="104.6079"><ele>387.9056</ele><time>2026-04-17T22:44:40.000Z</time></trkpt>
        <trkpt lat="28.773613" lon="104.607828"><ele>371.2222</ele><time>2026-04-17T22:45:04.000Z</time></trkpt>
        <trkpt lat="28.773644" lon="104.607769"><ele>371.2222</ele><time>2026-04-17T22:45:15.000Z</time></trkpt>
        <trkpt lat="28.773609" lon="104.60762"><ele>388.52408</ele><time>2026-04-17T22:45:25.000Z</time></trkpt>
        <trkpt lat="28.77359" lon="104.607566"><ele>389.0987</ele><time>2026-04-17T22:45:27.000Z</time></trkpt>
        <trkpt lat="28.773922" lon="104.607634"><ele>391.83978</ele><time>2026-04-17T22:45:35.000Z</time></trkpt>
        <trkpt lat="28.773906" lon="104.607414"><ele>399.14136</ele><time>2026-04-17T22:46:02.000Z</time></trkpt>
        <trkpt lat="28.77391" lon="104.607352"><ele>398.1548</ele><time>2026-04-17T22:46:06.000Z</time></trkpt>
        <trkpt lat="28.773927" lon="104.607295"><ele>397.69733</ele><time>2026-04-17T22:46:10.000Z</time></trkpt>
        <trkpt lat="28.77395" lon="104.607245"><ele>397.4655</ele><time>2026-04-17T22:46:15.000Z</time></trkpt>
        <trkpt lat="28.773975" lon="104.607187"><ele>396.92038</ele><time>2026-04-17T22:46:19.000Z</time></trkpt>
        <trkpt lat="28.773982" lon="104.607112"><ele>396.47525</ele><time>2026-04-17T22:46:23.000Z</time></trkpt>
        <trkpt lat="28.773978" lon="104.606901"><ele>392.83514</ele><time>2026-04-17T22:46:30.000Z</time></trkpt>
        <trkpt lat="28.773989" lon="104.606847"><ele>392.29227</ele><time>2026-04-17T22:46:33.000Z</time></trkpt>
        <trkpt lat="28.774008" lon="104.606789"><ele>390.76736</ele><time>2026-04-17T22:46:37.000Z</time></trkpt>
        <trkpt lat="28.774036" lon="104.606742"><ele>389.1016</ele><time>2026-04-17T22:46:41.000Z</time></trkpt>
        <trkpt lat="28.774056" lon="104.606689"><ele>388.2762</ele><time>2026-04-17T22:46:45.000Z</time></trkpt>
        <trkpt lat="28.774067" lon="104.606637"><ele>388.14523</ele><time>2026-04-17T22:46:49.000Z</time></trkpt>
        <trkpt lat="28.774089" lon="104.606584"><ele>387.47372</ele><time>2026-04-17T22:46:53.000Z</time></trkpt>
        <trkpt lat="28.774105" lon="104.606525"><ele>387.02692</ele><time>2026-04-17T22:46:57.000Z</time></trkpt>
        <trkpt lat="28.774133" lon="104.606479"><ele>386.48267</ele><time>2026-04-17T22:47:01.000Z</time></trkpt>
        <trkpt lat="28.774141" lon="104.606419"><ele>385.25366</ele><time>2026-04-17T22:47:05.000Z</time></trkpt>
        <trkpt lat="28.77416" lon="104.606369"><ele>384.07434</ele><time>2026-04-17T22:47:09.000Z</time></trkpt>
        <trkpt lat="28.774184" lon="104.606309"><ele>383.6602</ele><time>2026-04-17T22:47:14.000Z</time></trkpt>
        <trkpt lat="28.774184" lon="104.606257"><ele>384.0872</ele><time>2026-04-17T22:47:18.000Z</time></trkpt>
        <trkpt lat="28.774155" lon="104.606212"><ele>383.28546</ele><time>2026-04-17T22:47:23.000Z</time></trkpt>
        <trkpt lat="28.77413" lon="104.606168"><ele>382.40463</ele><time>2026-04-17T22:47:27.000Z</time></trkpt>
        <trkpt lat="28.774104" lon="104.606116"><ele>382.56946</ele><time>2026-04-17T22:47:32.000Z</time></trkpt>
        <trkpt lat="28.774111" lon="104.606059"><ele>383.69128</ele><time>2026-04-17T22:47:36.000Z</time></trkpt>
        <trkpt lat="28.774098" lon="104.606007"><ele>383.69064</ele><time>2026-04-17T22:47:39.000Z</time></trkpt>
        <trkpt lat="28.774093" lon="104.605951"><ele>384.14633</ele><time>2026-04-17T22:47:42.000Z</time></trkpt>
        <trkpt lat="28.774087" lon="104.605886"><ele>383.16498</ele><time>2026-04-17T22:47:45.000Z</time></trkpt>
        <trkpt lat="28.774093" lon="104.605833"><ele>383.768</ele><time>2026-04-17T22:47:48.000Z</time></trkpt>
        <trkpt lat="28.774103" lon="104.605782"><ele>383.43903</ele><time>2026-04-17T22:47:51.000Z</time></trkpt>
        <trkpt lat="28.774129" lon="104.605729"><ele>383.26602</ele><time>2026-04-17T22:47:55.000Z</time></trkpt>
        <trkpt lat="28.774151" lon="104.605669"><ele>383.66745</ele><time>2026-04-17T22:47:59.000Z</time></trkpt>
        <trkpt lat="28.774183" lon="104.605617"><ele>384.11417</ele><time>2026-04-17T22:48:03.000Z</time></trkpt>
        <trkpt lat="28.774197" lon="104.605563"><ele>384.33783</ele><time>2026-04-17T22:48:06.000Z</time></trkpt>
        <trkpt lat="28.77421" lon="104.60551"><ele>385.26904</ele><time>2026-04-17T22:48:09.000Z</time></trkpt>
        <trkpt lat="28.774231" lon="104.605453"><ele>385.0855</ele><time>2026-04-17T22:48:13.000Z</time></trkpt>
        <trkpt lat="28.774257" lon="104.605404"><ele>385.07462</ele><time>2026-04-17T22:48:17.000Z</time></trkpt>
        <trkpt lat="28.774281" lon="104.605351"><ele>386.22653</ele><time>2026-04-17T22:48:22.000Z</time></trkpt>
        <trkpt lat="28.774313" lon="104.605243"><ele>387.79718</ele><time>2026-04-17T22:48:28.000Z</time></trkpt>
        <trkpt lat="28.77437" lon="104.605188"><ele>387.22598</ele><time>2026-04-17T22:48:54.000Z</time></trkpt>
        <trkpt lat="28.774385" lon="104.605122"><ele>386.70868</ele><time>2026-04-17T22:48:57.000Z</time></trkpt>
        <trkpt lat="28.774411" lon="104.605076"><ele>386.70105</ele><time>2026-04-17T22:49:00.000Z</time></trkpt>
        <trkpt lat="28.77437" lon="104.605186"><ele>385.30484</ele><time>2026-04-17T22:49:13.000Z</time></trkpt>
        <trkpt lat="28.774361" lon="104.605239"><ele>385.52383</ele><time>2026-04-17T22:49:16.000Z</time></trkpt>
        <trkpt lat="28.774356" lon="104.605292"><ele>385.57513</ele><time>2026-04-17T22:49:19.000Z</time></trkpt>
        <trkpt lat="28.774333" lon="104.605337"><ele>386.09238</ele><time>2026-04-17T22:49:25.000Z</time></trkpt>
        <trkpt lat="28.774281" lon="104.60533"><ele>388.32367</ele><time>2026-04-17T22:49:31.000Z</time></trkpt>
        <trkpt lat="28.774235" lon="104.605347"><ele>390.50665</ele><time>2026-04-17T22:49:38.000Z</time></trkpt>
        <trkpt lat="28.77419" lon="104.60533"><ele>391.84332</ele><time>2026-04-17T22:49:46.000Z</time></trkpt>
        <trkpt lat="28.774146" lon="104.60537"><ele>393.8226</ele><time>2026-04-17T22:49:53.000Z</time></trkpt>
        <trkpt lat="28.774116" lon="104.60541"><ele>395.0662</ele><time>2026-04-17T22:49:57.000Z</time></trkpt>
        <trkpt lat="28.774085" lon="104.605456"><ele>396.68826</ele><time>2026-04-17T22:50:59.000Z</time></trkpt>
        <trkpt lat="28.77408" lon="104.605512"><ele>397.87766</ele><time>2026-04-17T22:51:38.000Z</time></trkpt>
        <trkpt lat="28.774027" lon="104.605505"><ele>399.32355</ele><time>2026-04-17T22:51:50.000Z</time></trkpt>
        <trkpt lat="28.77398" lon="104.605523"><ele>400.93295</ele><time>2026-04-17T22:51:56.000Z</time></trkpt>
        <trkpt lat="28.773947" lon="104.605563"><ele>401.99393</ele><time>2026-04-17T22:52:05.000Z</time></trkpt>
        <trkpt lat="28.773892" lon="104.605576"><ele>405.192</ele><time>2026-04-17T22:52:14.000Z</time></trkpt>
        <trkpt lat="28.773844" lon="104.605592"><ele>406.99994</ele><time>2026-04-17T22:52:20.000Z</time></trkpt>
        <trkpt lat="28.773793" lon="104.605581"><ele>407.47372</ele><time>2026-04-17T22:52:25.000Z</time></trkpt>
        <trkpt lat="28.77375" lon="104.605553"><ele>408.5231</ele><time>2026-04-17T22:52:29.000Z</time></trkpt>
        <trkpt lat="28.773701" lon="104.605527"><ele>410.78912</ele><time>2026-04-17T22:52:32.000Z</time></trkpt>
        <trkpt lat="28.773659" lon="104.605491"><ele>412.82864</ele><time>2026-04-17T22:52:36.000Z</time></trkpt>
        <trkpt lat="28.773587" lon="104.605502"><ele>415.16745</ele><time>2026-04-17T22:53:21.000Z</time></trkpt>
        <trkpt lat="28.773548" lon="104.605532"><ele>416.54895</ele><time>2026-04-17T22:53:28.000Z</time></trkpt>
        <trkpt lat="28.77351" lon="104.605575"><ele>418.06003</ele><time>2026-04-17T22:53:36.000Z</time></trkpt>
        <trkpt lat="28.77347" lon="104.605602"><ele>419.04913</ele><time>2026-04-17T22:53:43.000Z</time></trkpt>
        <trkpt lat="28.773426" lon="104.60562"><ele>420.64688</ele><time>2026-04-17T22:53:47.000Z</time></trkpt>
        <trkpt lat="28.773374" lon="104.605628"><ele>422.82452</ele><time>2026-04-17T22:53:57.000Z</time></trkpt>
        <trkpt lat="28.773326" lon="104.605654"><ele>425.60443</ele><time>2026-04-17T22:54:05.000Z</time></trkpt>
        <trkpt lat="28.77328" lon="104.605691"><ele>427.10733</ele><time>2026-04-17T22:54:10.000Z</time></trkpt>
        <trkpt lat="28.773249" lon="104.60574"><ele>429.1487</ele><time>2026-04-17T22:54:17.000Z</time></trkpt>
        <trkpt lat="28.77321" lon="104.605707"><ele>429.93185</ele><time>2026-04-17T22:54:22.000Z</time></trkpt>
        <trkpt lat="28.773168" lon="104.60569"><ele>430.58273</ele><time>2026-04-17T22:54:26.000Z</time></trkpt>
        <trkpt lat="28.773118" lon="104.605713"><ele>432.45972</ele><time>2026-04-17T22:54:32.000Z</time></trkpt>
        <trkpt lat="28.773066" lon="104.605724"><ele>434.6893</ele><time>2026-04-17T22:54:39.000Z</time></trkpt>
        <trkpt lat="28.773041" lon="104.605768"><ele>436.4965</ele><time>2026-04-17T22:54:47.000Z</time></trkpt>
        <trkpt lat="28.772986" lon="104.60576"><ele>437.2696</ele><time>2026-04-17T22:54:57.000Z</time></trkpt>
        <trkpt lat="28.772889" lon="104.605749"><ele>440.0228</ele><time>2026-04-17T22:55:10.000Z</time></trkpt>
        <trkpt lat="28.772845" lon="104.605761"><ele>441.62067</ele><time>2026-04-17T22:55:19.000Z</time></trkpt>
        <trkpt lat="28.772814" lon="104.605804"><ele>443.4745</ele><time>2026-04-17T22:55:25.000Z</time></trkpt>
        <trkpt lat="28.772804" lon="104.605748"><ele>443.70163</ele><time>2026-04-17T22:55:33.000Z</time></trkpt>
        <trkpt lat="28.772758" lon="104.605725"><ele>445.47784</ele><time>2026-04-17T22:55:52.000Z</time></trkpt>
        <trkpt lat="28.772729" lon="104.605787"><ele>447.32007</ele><time>2026-04-17T22:56:09.000Z</time></trkpt>
        <trkpt lat="28.77268" lon="104.605802"><ele>448.92657</ele><time>2026-04-17T22:56:17.000Z</time></trkpt>
        <trkpt lat="28.772632" lon="104.605827"><ele>449.98196</ele><time>2026-04-17T22:56:31.000Z</time></trkpt>
        <trkpt lat="28.772595" lon="104.60586"><ele>452.4127</ele><time>2026-04-17T22:56:44.000Z</time></trkpt>
        <trkpt lat="28.772544" lon="104.605825"><ele>454.2758</ele><time>2026-04-17T22:57:02.000Z</time></trkpt>
        <trkpt lat="28.772508" lon="104.605794"><ele>455.0162</ele><time>2026-04-17T22:57:09.000Z</time></trkpt>
        <trkpt lat="28.772402" lon="104.605801"><ele>457.97964</ele><time>2026-04-17T22:57:19.000Z</time></trkpt>
        <trkpt lat="28.772353" lon="104.605805"><ele>459.42416</ele><time>2026-04-17T22:57:23.000Z</time></trkpt>
        <trkpt lat="28.772255" lon="104.605794"><ele>460.1152</ele><time>2026-04-17T22:57:46.000Z</time></trkpt>
        <trkpt lat="28.772213" lon="104.605839"><ele>460.56927</ele><time>2026-04-17T22:58:09.000Z</time></trkpt>
        <trkpt lat="28.772195" lon="104.605889"><ele>462.5255</ele><time>2026-04-17T22:58:13.000Z</time></trkpt>
        <trkpt lat="28.772156" lon="104.605923"><ele>463.42715</ele><time>2026-04-17T22:58:17.000Z</time></trkpt>
        <trkpt lat="28.77211" lon="104.605915"><ele>465.05444</ele><time>2026-04-17T22:58:21.000Z</time></trkpt>
        <trkpt lat="28.772075" lon="104.605949"><ele>466.02332</ele><time>2026-04-17T22:58:25.000Z</time></trkpt>
        <trkpt lat="28.772043" lon="104.605989"><ele>467.57162</ele><time>2026-04-17T22:58:32.000Z</time></trkpt>
        <trkpt lat="28.772005" lon="104.606021"><ele>469.01794</ele><time>2026-04-17T22:58:35.000Z</time></trkpt>
        <trkpt lat="28.771972" lon="104.606062"><ele>470.42136</ele><time>2026-04-17T22:58:39.000Z</time></trkpt>
        <trkpt lat="28.771927" lon="104.606089"><ele>471.70407</ele><time>2026-04-17T22:59:04.000Z</time></trkpt>
        <trkpt lat="28.771884" lon="104.606108"><ele>472.54343</ele><time>2026-04-17T22:59:09.000Z</time></trkpt>
        <trkpt lat="28.77184" lon="104.606133"><ele>472.14566</ele><time>2026-04-17T22:59:16.000Z</time></trkpt>
        <trkpt lat="28.771792" lon="104.606172"><ele>471.7979</ele><time>2026-04-17T22:59:23.000Z</time></trkpt>
        <trkpt lat="28.771752" lon="104.606206"><ele>471.73434</ele><time>2026-04-17T22:59:28.000Z</time></trkpt>
        <trkpt lat="28.771739" lon="104.606258"><ele>471.32187</ele><time>2026-04-17T22:59:40.000Z</time></trkpt>
        <trkpt lat="28.771674" lon="104.606364"><ele>471.83542</ele><time>2026-04-17T22:59:48.000Z</time></trkpt>
        <trkpt lat="28.77164" lon="104.606415"><ele>471.91537</ele><time>2026-04-17T22:59:52.000Z</time></trkpt>
        <trkpt lat="28.771616" lon="104.606537"><ele>472.26852</ele><time>2026-04-17T23:00:17.000Z</time></trkpt>
        <trkpt lat="28.771597" lon="104.606593"><ele>472.41208</ele><time>2026-04-17T23:00:21.000Z</time></trkpt>
        <trkpt lat="28.771517" lon="104.606668"><ele>471.40533</ele><time>2026-04-17T23:00:33.000Z</time></trkpt>
        <trkpt lat="28.771547" lon="104.606706"><ele>470.2848</ele><time>2026-04-17T23:01:18.000Z</time></trkpt>
        <trkpt lat="28.771526" lon="104.606761"><ele>470.84476</ele><time>2026-04-17T23:02:20.000Z</time></trkpt>
        <trkpt lat="28.77151" lon="104.606924"><ele>471.86075</ele><time>2026-04-17T23:02:33.000Z</time></trkpt>
        <trkpt lat="28.771511" lon="104.606988"><ele>471.16486</ele><time>2026-04-17T23:02:37.000Z</time></trkpt>
        <trkpt lat="28.771511" lon="104.607043"><ele>471.3357</ele><time>2026-04-17T23:02:43.000Z</time></trkpt>
        <trkpt lat="28.771507" lon="104.607098"><ele>470.86328</ele><time>2026-04-17T23:02:47.000Z</time></trkpt>
        <trkpt lat="28.771504" lon="104.607155"><ele>470.9602</ele><time>2026-04-17T23:02:51.000Z</time></trkpt>
        <trkpt lat="28.771508" lon="104.607211"><ele>471.17224</ele><time>2026-04-17T23:02:56.000Z</time></trkpt>
        <trkpt lat="28.771505" lon="104.607267"><ele>471.13025</ele><time>2026-04-17T23:03:00.000Z</time></trkpt>
        <trkpt lat="28.771518" lon="104.607325"><ele>467.75702</ele><time>2026-04-17T23:03:06.000Z</time></trkpt>
        <trkpt lat="28.771535" lon="104.607379"><ele>467.2091</ele><time>2026-04-17T23:03:11.000Z</time></trkpt>
        <trkpt lat="28.771541" lon="104.607434"><ele>467.16644</ele><time>2026-04-17T23:03:15.000Z</time></trkpt>
        <trkpt lat="28.771561" lon="104.607492"><ele>467.1102</ele><time>2026-04-17T23:03:20.000Z</time></trkpt>
        <trkpt lat="28.771558" lon="104.607545"><ele>466.41754</ele><time>2026-04-17T23:03:27.000Z</time></trkpt>
        <trkpt lat="28.771545" lon="104.607601"><ele>465.86615</ele><time>2026-04-17T23:03:32.000Z</time></trkpt>
        <trkpt lat="28.771536" lon="104.607655"><ele>464.92944</ele><time>2026-04-17T23:03:36.000Z</time></trkpt>
        <trkpt lat="28.771527" lon="104.607707"><ele>465.88586</ele><time>2026-04-17T23:03:40.000Z</time></trkpt>
        <trkpt lat="28.771502" lon="104.607761"><ele>464.05902</ele><time>2026-04-17T23:03:45.000Z</time></trkpt>
        <trkpt lat="28.771478" lon="104.607815"><ele>464.06998</ele><time>2026-04-17T23:03:50.000Z</time></trkpt>
        <trkpt lat="28.771443" lon="104.607864"><ele>464.899</ele><time>2026-04-17T23:03:55.000Z</time></trkpt>
        <trkpt lat="28.771423" lon="104.607913"><ele>464.75354</ele><time>2026-04-17T23:04:00.000Z</time></trkpt>
        <trkpt lat="28.771398" lon="104.607961"><ele>464.31647</ele><time>2026-04-17T23:04:05.000Z</time></trkpt>
        <trkpt lat="28.771395" lon="104.608028"><ele>464.55136</ele><time>2026-04-17T23:04:09.000Z</time></trkpt>
        <trkpt lat="28.771389" lon="104.608085"><ele>465.01315</ele><time>2026-04-17T23:04:13.000Z</time></trkpt>
        <trkpt lat="28.771375" lon="104.608135"><ele>465.44934</ele><time>2026-04-17T23:04:17.000Z</time></trkpt>
        <trkpt lat="28.771353" lon="104.608184"><ele>465.7894</ele><time>2026-04-17T23:04:21.000Z</time></trkpt>
        <trkpt lat="28.771319" lon="104.608218"><ele>464.58963</ele><time>2026-04-17T23:04:26.000Z</time></trkpt>
        <trkpt lat="28.771279" lon="104.608322"><ele>465.31226</ele><time>2026-04-17T23:05:02.000Z</time></trkpt>
        <trkpt lat="28.771268" lon="104.608384"><ele>465.16165</ele><time>2026-04-17T23:05:11.000Z</time></trkpt>
        <trkpt lat="28.771171" lon="104.608584"><ele>467.99323</ele><time>2026-04-17T23:05:25.000Z</time></trkpt>
        <trkpt lat="28.771145" lon="104.608637"><ele>469.33673</ele><time>2026-04-17T23:05:32.000Z</time></trkpt>
        <trkpt lat="28.771141" lon="104.608691"><ele>470.29422</ele><time>2026-04-17T23:05:38.000Z</time></trkpt>
        <trkpt lat="28.771145" lon="104.608745"><ele>469.12585</ele><time>2026-04-17T23:05:56.000Z</time></trkpt>
        <trkpt lat="28.771109" lon="104.608783"><ele>469.72156</ele><time>2026-04-17T23:06:05.000Z</time></trkpt>
        <trkpt lat="28.77108" lon="104.608741"><ele>469.6468</ele><time>2026-04-17T23:06:12.000Z</time></trkpt>
        <trkpt lat="28.771052" lon="104.608694"><ele>470.9213</ele><time>2026-04-17T23:06:20.000Z</time></trkpt>
        <trkpt lat="28.771033" lon="104.608645"><ele>473.17477</ele><time>2026-04-17T23:06:27.000Z</time></trkpt>
        <trkpt lat="28.771009" lon="104.608586"><ele>476.73895</ele><time>2026-04-17T23:06:37.000Z</time></trkpt>
        <trkpt lat="28.770995" lon="104.608537"><ele>478.578</ele><time>2026-04-17T23:06:43.000Z</time></trkpt>
        <trkpt lat="28.770985" lon="104.608475"><ele>480.177</ele><time>2026-04-17T23:06:49.000Z</time></trkpt>
        <trkpt lat="28.770992" lon="104.608408"><ele>481.05106</ele><time>2026-04-17T23:06:57.000Z</time></trkpt>
        <trkpt lat="28.770978" lon="104.608357"><ele>481.53918</ele><time>2026-04-17T23:07:08.000Z</time></trkpt>
        <trkpt lat="28.771002" lon="104.608302"><ele>481.94537</ele><time>2026-04-17T23:07:18.000Z</time></trkpt>
        <trkpt lat="28.771008" lon="104.608246"><ele>483.99762</ele><time>2026-04-17T23:07:27.000Z</time></trkpt>
        <trkpt lat="28.77101" lon="104.60819"><ele>484.7454</ele><time>2026-04-17T23:07:31.000Z</time></trkpt>
        <trkpt lat="28.771005" lon="104.608137"><ele>486.14816</ele><time>2026-04-17T23:07:38.000Z</time></trkpt>
        <trkpt lat="28.770982" lon="104.608086"><ele>486.66882</ele><time>2026-04-17T23:07:43.000Z</time></trkpt>
        <trkpt lat="28.770971" lon="104.608033"><ele>489.1697</ele><time>2026-04-17T23:07:52.000Z</time></trkpt>
        <trkpt lat="28.77096" lon="104.607983"><ele>490.53488</ele><time>2026-04-17T23:07:56.000Z</time></trkpt>
        <trkpt lat="28.770948" lon="104.607927"><ele>492.40472</ele><time>2026-04-17T23:08:05.000Z</time></trkpt>
        <trkpt lat="28.770916" lon="104.60781"><ele>494.19266</ele><time>2026-04-17T23:08:15.000Z</time></trkpt>
        <trkpt lat="28.77089" lon="104.607768"><ele>494.86563</ele><time>2026-04-17T23:08:19.000Z</time></trkpt>
        <trkpt lat="28.770883" lon="104.607703"><ele>494.91324</ele><time>2026-04-17T23:08:25.000Z</time></trkpt>
        <trkpt lat="28.770854" lon="104.607658"><ele>495.42032</ele><time>2026-04-17T23:08:29.000Z</time></trkpt>
        <trkpt lat="28.770827" lon="104.607612"><ele>494.7907</ele><time>2026-04-17T23:08:32.000Z</time></trkpt>
        <trkpt lat="28.770816" lon="104.607559"><ele>494.3942</ele><time>2026-04-17T23:08:36.000Z</time></trkpt>
        <trkpt lat="28.770813" lon="104.607501"><ele>494.4851</ele><time>2026-04-17T23:08:41.000Z</time></trkpt>
        <trkpt lat="28.770796" lon="104.607443"><ele>493.6385</ele><time>2026-04-17T23:08:46.000Z</time></trkpt>
        <trkpt lat="28.770781" lon="104.607385"><ele>492.55862</ele><time>2026-04-17T23:08:50.000Z</time></trkpt>
        <trkpt lat="28.770789" lon="104.607332"><ele>491.59265</ele><time>2026-04-17T23:08:55.000Z</time></trkpt>
        <trkpt lat="28.770794" lon="104.607278"><ele>492.28345</ele><time>2026-04-17T23:09:04.000Z</time></trkpt>
        <trkpt lat="28.77084" lon="104.607274"><ele>492.7611</ele><time>2026-04-17T23:09:54.000Z</time></trkpt>
        <trkpt lat="28.770793" lon="104.607282"><ele>493.59775</ele><time>2026-04-17T23:10:06.000Z</time></trkpt>
        <trkpt lat="28.770747" lon="104.607284"><ele>492.6393</ele><time>2026-04-17T23:10:34.000Z</time></trkpt>
        <trkpt lat="28.770665" lon="104.607177"><ele>493.29373</ele><time>2026-04-17T23:10:43.000Z</time></trkpt>
        <trkpt lat="28.77062" lon="104.60713"><ele>493.05054</ele><time>2026-04-17T23:10:49.000Z</time></trkpt>
        <trkpt lat="28.770588" lon="104.607069"><ele>492.55698</ele><time>2026-04-17T23:10:53.000Z</time></trkpt>
        <trkpt lat="28.770556" lon="104.607022"><ele>492.37015</ele><time>2026-04-17T23:10:57.000Z</time></trkpt>
        <trkpt lat="28.770518" lon="104.606977"><ele>492.49576</ele><time>2026-04-17T23:11:02.000Z</time></trkpt>
        <trkpt lat="28.770483" lon="104.606921"><ele>491.47546</ele><time>2026-04-17T23:11:07.000Z</time></trkpt>
        <trkpt lat="28.770441" lon="104.606892"><ele>491.16452</ele><time>2026-04-17T23:11:12.000Z</time></trkpt>
        <trkpt lat="28.770404" lon="104.606857"><ele>491.1971</ele><time>2026-04-17T23:11:16.000Z</time></trkpt>
        <trkpt lat="28.770369" lon="104.606757"><ele>490.47598</ele><time>2026-04-17T23:11:31.000Z</time></trkpt>
        <trkpt lat="28.770361" lon="104.606577"><ele>487.81787</ele><time>2026-04-17T23:11:49.000Z</time></trkpt>
        <trkpt lat="28.770319" lon="104.606553"><ele>487.79285</ele><time>2026-04-17T23:11:58.000Z</time></trkpt>
        <trkpt lat="28.770311" lon="104.606502"><ele>486.86356</ele><time>2026-04-17T23:12:03.000Z</time></trkpt>
        <trkpt lat="28.770311" lon="104.606444"><ele>486.84308</ele><time>2026-04-17T23:12:08.000Z</time></trkpt>
        <trkpt lat="28.770304" lon="104.60639"><ele>486.9495</ele><time>2026-04-17T23:12:12.000Z</time></trkpt>
        <trkpt lat="28.770116" lon="104.606376"><ele>487.21448</ele><time>2026-04-17T23:12:37.000Z</time></trkpt>
        <trkpt lat="28.770131" lon="104.606321"><ele>486.22073</ele><time>2026-04-17T23:12:45.000Z</time></trkpt>
        <trkpt lat="28.770052" lon="104.606278"><ele>484.4194</ele><time>2026-04-17T23:12:57.000Z</time></trkpt>
        <trkpt lat="28.769833" lon="104.606288"><ele>483.35593</ele><time>2026-04-17T23:13:26.000Z</time></trkpt>
        <trkpt lat="28.769833" lon="104.606346"><ele>483.96112</ele><time>2026-04-17T23:13:30.000Z</time></trkpt>
        <trkpt lat="28.769763" lon="104.60644"><ele>483.66965</ele><time>2026-04-17T23:13:37.000Z</time></trkpt>
        <trkpt lat="28.769628" lon="104.606505"><ele>480.1195</ele><time>2026-04-17T23:13:59.000Z</time></trkpt>
        <trkpt lat="28.769659" lon="104.606552"><ele>478.47852</ele><time>2026-04-17T23:14:23.000Z</time></trkpt>
        <trkpt lat="28.769687" lon="104.606594"><ele>477.267</ele><time>2026-04-17T23:14:32.000Z</time></trkpt>
        <trkpt lat="28.769714" lon="104.606636"><ele>476.3031</ele><time>2026-04-17T23:14:42.000Z</time></trkpt>
        <trkpt lat="28.769702" lon="104.606689"><ele>474.45224</ele><time>2026-04-17T23:14:51.000Z</time></trkpt>
        <trkpt lat="28.769683" lon="104.606748"><ele>471.37228</ele><time>2026-04-17T23:14:58.000Z</time></trkpt>
        <trkpt lat="28.76964" lon="104.606768"><ele>468.087</ele><time>2026-04-17T23:15:07.000Z</time></trkpt>
        <trkpt lat="28.769604" lon="104.606802"><ele>467.12216</ele><time>2026-04-17T23:15:12.000Z</time></trkpt>
        <trkpt lat="28.76956" lon="104.606778"><ele>464.39127</ele><time>2026-04-17T23:15:27.000Z</time></trkpt>
        <trkpt lat="28.769515" lon="104.606811"><ele>465.14194</ele><time>2026-04-17T23:15:35.000Z</time></trkpt>
        <trkpt lat="28.769461" lon="104.606813"><ele>458.73865</ele><time>2026-04-17T23:15:54.000Z</time></trkpt>
        <trkpt lat="28.769412" lon="104.606837"><ele>461.11063</ele><time>2026-04-17T23:16:00.000Z</time></trkpt>
        <trkpt lat="28.769462" lon="104.606818"><ele>460.05182</ele><time>2026-04-17T23:16:15.000Z</time></trkpt>
        <trkpt lat="28.769443" lon="104.606866"><ele>459.50565</ele><time>2026-04-17T23:16:22.000Z</time></trkpt>
        <trkpt lat="28.769367" lon="104.606735"><ele>459.00125</ele><time>2026-04-17T23:17:10.000Z</time></trkpt>
        <trkpt lat="28.769175" lon="104.606837"><ele>452.3396</ele><time>2026-04-17T23:17:38.000Z</time></trkpt>
        <trkpt lat="28.769127" lon="104.606846"><ele>450.21982</ele><time>2026-04-17T23:17:53.000Z</time></trkpt>
        <trkpt lat="28.769079" lon="104.606862"><ele>446.94745</ele><time>2026-04-17T23:18:11.000Z</time></trkpt>
        <trkpt lat="28.769036" lon="104.606893"><ele>447.86536</ele><time>2026-04-17T23:18:16.000Z</time></trkpt>
        <trkpt lat="28.768997" lon="104.60692"><ele>446.42508</ele><time>2026-04-17T23:18:28.000Z</time></trkpt>
        <trkpt lat="28.769043" lon="104.606997"><ele>444.6542</ele><time>2026-04-17T23:19:05.000Z</time></trkpt>
        <trkpt lat="28.769047" lon="104.607048"><ele>442.23004</ele><time>2026-04-17T23:19:17.000Z</time></trkpt>
        <trkpt lat="28.769013" lon="104.607089"><ele>439.47992</ele><time>2026-04-17T23:19:30.000Z</time></trkpt>
        <trkpt lat="28.768979" lon="104.607126"><ele>437.51825</ele><time>2026-04-17T23:19:46.000Z</time></trkpt>
        <trkpt lat="28.768962" lon="104.60718"><ele>435.85815</ele><time>2026-04-17T23:19:52.000Z</time></trkpt>
        <trkpt lat="28.768926" lon="104.607225"><ele>433.91602</ele><time>2026-04-17T23:20:01.000Z</time></trkpt>
        <trkpt lat="28.768889" lon="104.607258"><ele>434.13242</ele><time>2026-04-17T23:20:07.000Z</time></trkpt>
        <trkpt lat="28.768874" lon="104.607207"><ele>432.47278</ele><time>2026-04-17T23:21:01.000Z</time></trkpt>
        <trkpt lat="28.768841" lon="104.607171"><ele>432.21646</ele><time>2026-04-17T23:21:19.000Z</time></trkpt>
        <trkpt lat="28.768801" lon="104.607143"><ele>431.4203</ele><time>2026-04-17T23:21:27.000Z</time></trkpt>
        <trkpt lat="28.76876" lon="104.607119"><ele>431.08212</ele><time>2026-04-17T23:21:31.000Z</time></trkpt>
        <trkpt lat="28.76872" lon="104.607087"><ele>430.5753</ele><time>2026-04-17T23:21:35.000Z</time></trkpt>
        <trkpt lat="28.768615" lon="104.607074"><ele>430.92926</ele><time>2026-04-17T23:21:41.000Z</time></trkpt>
        <trkpt lat="28.768561" lon="104.60707"><ele>430.6691</ele><time>2026-04-17T23:21:45.000Z</time></trkpt>
        <trkpt lat="28.76851" lon="104.607064"><ele>429.72986</ele><time>2026-04-17T23:21:49.000Z</time></trkpt>
        <trkpt lat="28.768456" lon="104.607053"><ele>429.7866</ele><time>2026-04-17T23:21:53.000Z</time></trkpt>
        <trkpt lat="28.768412" lon="104.607073"><ele>429.6638</ele><time>2026-04-17T23:21:57.000Z</time></trkpt>
        <trkpt lat="28.768384" lon="104.607118"><ele>428.44797</ele><time>2026-04-17T23:22:05.000Z</time></trkpt>
        <trkpt lat="28.768338" lon="104.607106"><ele>426.86163</ele><time>2026-04-17T23:22:14.000Z</time></trkpt>
        <trkpt lat="28.768303" lon="104.607066"><ele>425.5914</ele><time>2026-04-17T23:22:19.000Z</time></trkpt>
        <trkpt lat="28.76827" lon="104.607013"><ele>426.34302</ele><time>2026-04-17T23:22:24.000Z</time></trkpt>
        <trkpt lat="28.768179" lon="104.606884"><ele>429.5274</ele><time>2026-04-17T23:23:02.000Z</time></trkpt>
        <trkpt lat="28.768222" lon="104.606915"><ele>429.13443</ele><time>2026-04-17T23:23:08.000Z</time></trkpt>
        <trkpt lat="28.768195" lon="104.606871"><ele>430.46463</ele><time>2026-04-17T23:23:28.000Z</time></trkpt>
        <trkpt lat="28.768192" lon="104.606857"><ele>429.67108</ele><time>2026-04-17T23:23:52.000Z</time></trkpt>
        <trkpt lat="28.768186" lon="104.606805"><ele>432.8167</ele><time>2026-04-17T23:24:26.000Z</time></trkpt>
        <trkpt lat="28.768156" lon="104.606757"><ele>432.87204</ele><time>2026-04-17T23:24:33.000Z</time></trkpt>
        <trkpt lat="28.768123" lon="104.606716"><ele>433.93738</ele><time>2026-04-17T23:24:38.000Z</time></trkpt>
        <trkpt lat="28.768084" lon="104.606675"><ele>434.59796</ele><time>2026-04-17T23:24:43.000Z</time></trkpt>
        <trkpt lat="28.768049" lon="104.606629"><ele>435.0245</ele><time>2026-04-17T23:24:49.000Z</time></trkpt>
        <trkpt lat="28.768015" lon="104.606588"><ele>435.53967</ele><time>2026-04-17T23:24:55.000Z</time></trkpt>
        <trkpt lat="28.767988" lon="104.606545"><ele>434.7781</ele><time>2026-04-17T23:24:59.000Z</time></trkpt>
        <trkpt lat="28.767949" lon="104.606504"><ele>435.926</ele><time>2026-04-17T23:25:04.000Z</time></trkpt>
        <trkpt lat="28.767914" lon="104.606464"><ele>437.6444</ele><time>2026-04-17T23:25:10.000Z</time></trkpt>
        <trkpt lat="28.767886" lon="104.606422"><ele>438.46835</ele><time>2026-04-17T23:25:16.000Z</time></trkpt>
        <trkpt lat="28.767855" lon="104.606373"><ele>441.2518</ele><time>2026-04-17T23:25:23.000Z</time></trkpt>
        <trkpt lat="28.76782" lon="104.606336"><ele>441.86542</ele><time>2026-04-17T23:25:29.000Z</time></trkpt>
        <trkpt lat="28.767788" lon="104.606285"><ele>442.77148</ele><time>2026-04-17T23:25:37.000Z</time></trkpt>
        <trkpt lat="28.767766" lon="104.60623"><ele>442.85077</ele><time>2026-04-17T23:25:42.000Z</time></trkpt>
        <trkpt lat="28.767749" lon="104.606173"><ele>442.1779</ele><time>2026-04-17T23:25:47.000Z</time></trkpt>
        <trkpt lat="28.76773" lon="104.606119"><ele>443.06494</ele><time>2026-04-17T23:25:53.000Z</time></trkpt>
        <trkpt lat="28.767722" lon="104.606065"><ele>442.78018</ele><time>2026-04-17T23:25:58.000Z</time></trkpt>
        <trkpt lat="28.767715" lon="104.606007"><ele>443.1914</ele><time>2026-04-17T23:26:10.000Z</time></trkpt>
        <trkpt lat="28.767743" lon="104.60596"><ele>445.06934</ele><time>2026-04-17T23:26:56.000Z</time></trkpt>
        <trkpt lat="28.767708" lon="104.605906"><ele>445.2296</ele><time>2026-04-17T23:27:48.000Z</time></trkpt>
        <trkpt lat="28.767667" lon="104.605934"><ele>448.22815</ele><time>2026-04-17T23:29:10.000Z</time></trkpt>
        <trkpt lat="28.767688" lon="104.605886"><ele>446.8525</ele><time>2026-04-17T23:29:39.000Z</time></trkpt>
        <trkpt lat="28.7677" lon="104.605936"><ele>445.13504</ele><time>2026-04-17T23:31:26.000Z</time></trkpt>
        <trkpt lat="28.7677" lon="104.605882"><ele>447.12936</ele><time>2026-04-17T23:33:30.000Z</time></trkpt>
        <trkpt lat="28.767707" lon="104.60583"><ele>449.4328</ele><time>2026-04-17T23:34:00.000Z</time></trkpt>
        <trkpt lat="28.767675" lon="104.605787"><ele>450.2622</ele><time>2026-04-17T23:34:09.000Z</time></trkpt>
        <trkpt lat="28.767655" lon="104.605728"><ele>449.58316</ele><time>2026-04-17T23:34:15.000Z</time></trkpt>
        <trkpt lat="28.767631" lon="104.605668"><ele>449.77124</ele><time>2026-04-17T23:34:37.000Z</time></trkpt>
        <trkpt lat="28.767597" lon="104.60562"><ele>451.153</ele><time>2026-04-17T23:34:43.000Z</time></trkpt>
        <trkpt lat="28.767564" lon="104.60558"><ele>451.60352</ele><time>2026-04-17T23:34:47.000Z</time></trkpt>
        <trkpt lat="28.767534" lon="104.60553"><ele>451.2054</ele><time>2026-04-17T23:34:52.000Z</time></trkpt>
        <trkpt lat="28.767527" lon="104.605479"><ele>450.09027</ele><time>2026-04-17T23:34:58.000Z</time></trkpt>
        <trkpt lat="28.767509" lon="104.605422"><ele>452.31113</ele><time>2026-04-17T23:35:05.000Z</time></trkpt>
        <trkpt lat="28.767496" lon="104.605369"><ele>451.90094</ele><time>2026-04-17T23:35:09.000Z</time></trkpt>
        <trkpt lat="28.767481" lon="104.605315"><ele>452.78534</ele><time>2026-04-17T23:35:14.000Z</time></trkpt>
        <trkpt lat="28.767468" lon="104.605262"><ele>452.39322</ele><time>2026-04-17T23:35:18.000Z</time></trkpt>
        <trkpt lat="28.767443" lon="104.605218"><ele>452.94366</ele><time>2026-04-17T23:35:24.000Z</time></trkpt>
        <trkpt lat="28.767417" lon="104.605171"><ele>453.36044</ele><time>2026-04-17T23:35:28.000Z</time></trkpt>
        <trkpt lat="28.767394" lon="104.605122"><ele>453.99127</ele><time>2026-04-17T23:35:32.000Z</time></trkpt>
        <trkpt lat="28.767392" lon="104.605064"><ele>453.37344</ele><time>2026-04-17T23:35:38.000Z</time></trkpt>
        <trkpt lat="28.767396" lon="104.605006"><ele>454.27042</ele><time>2026-04-17T23:35:42.000Z</time></trkpt>
        <trkpt lat="28.767405" lon="104.604955"><ele>454.92694</ele><time>2026-04-17T23:35:48.000Z</time></trkpt>
        <trkpt lat="28.767402" lon="104.604898"><ele>457.04425</ele><time>2026-04-17T23:35:54.000Z</time></trkpt>
        <trkpt lat="28.767387" lon="104.604835"><ele>457.7199</ele><time>2026-04-17T23:35:58.000Z</time></trkpt>
        <trkpt lat="28.767339" lon="104.60469"><ele>455.34186</ele><time>2026-04-17T23:36:17.000Z</time></trkpt>
        <trkpt lat="28.767327" lon="104.604639"><ele>453.18448</ele><time>2026-04-17T23:36:20.000Z</time></trkpt>
        <trkpt lat="28.767275" lon="104.60453"><ele>450.94366</ele><time>2026-04-17T23:36:40.000Z</time></trkpt>
        <trkpt lat="28.767252" lon="104.604483"><ele>449.44324</ele><time>2026-04-17T23:36:50.000Z</time></trkpt>
        <trkpt lat="28.767219" lon="104.60444"><ele>448.6894</ele><time>2026-04-17T23:37:01.000Z</time></trkpt>
        <trkpt lat="28.767192" lon="104.604388"><ele>449.29</ele><time>2026-04-17T23:37:06.000Z</time></trkpt>
        <trkpt lat="28.767141" lon="104.60422"><ele>446.65164</ele><time>2026-04-17T23:37:15.000Z</time></trkpt>
        <trkpt lat="28.767127" lon="104.604161"><ele>447.05536</ele><time>2026-04-17T23:37:21.000Z</time></trkpt>
        <trkpt lat="28.767093" lon="104.604118"><ele>447.12607</ele><time>2026-04-17T23:37:28.000Z</time></trkpt>
        <trkpt lat="28.767018" lon="104.604029"><ele>448.84952</ele><time>2026-04-17T23:37:35.000Z</time></trkpt>
        <trkpt lat="28.766979" lon="104.603991"><ele>449.0146</ele><time>2026-04-17T23:37:42.000Z</time></trkpt>
        <trkpt lat="28.766939" lon="104.603964"><ele>449.31467</ele><time>2026-04-17T23:37:47.000Z</time></trkpt>
        <trkpt lat="28.766889" lon="104.603937"><ele>448.77893</ele><time>2026-04-17T23:37:51.000Z</time></trkpt>
        <trkpt lat="28.766846" lon="104.603909"><ele>447.8611</ele><time>2026-04-17T23:37:54.000Z</time></trkpt>
        <trkpt lat="28.766805" lon="104.60388"><ele>447.62653</ele><time>2026-04-17T23:37:59.000Z</time></trkpt>
        <trkpt lat="28.766772" lon="104.603831"><ele>445.97186</ele><time>2026-04-17T23:38:03.000Z</time></trkpt>
        <trkpt lat="28.766734" lon="104.603801"><ele>444.68124</ele><time>2026-04-17T23:38:07.000Z</time></trkpt>
        <trkpt lat="28.76669" lon="104.603784"><ele>444.67908</ele><time>2026-04-17T23:38:12.000Z</time></trkpt>
        <trkpt lat="28.766645" lon="104.603768"><ele>444.15012</ele><time>2026-04-17T23:38:16.000Z</time></trkpt>
        <trkpt lat="28.766557" lon="104.603679"><ele>445.3798</ele><time>2026-04-17T23:38:23.000Z</time></trkpt>
        <trkpt lat="28.766527" lon="104.603626"><ele>443.81332</ele><time>2026-04-17T23:38:27.000Z</time></trkpt>
        <trkpt lat="28.766498" lon="104.603584"><ele>443.2066</ele><time>2026-04-17T23:38:30.000Z</time></trkpt>
        <trkpt lat="28.766458" lon="104.603482"><ele>443.423</ele><time>2026-04-17T23:38:42.000Z</time></trkpt>
        <trkpt lat="28.766415" lon="104.603426"><ele>442.47504</ele><time>2026-04-17T23:38:47.000Z</time></trkpt>
        <trkpt lat="28.766378" lon="104.603393"><ele>442.94263</ele><time>2026-04-17T23:38:53.000Z</time></trkpt>
        <trkpt lat="28.766354" lon="104.603346"><ele>442.11435</ele><time>2026-04-17T23:38:58.000Z</time></trkpt>
        <trkpt lat="28.766351" lon="104.603208"><ele>440.81583</ele><time>2026-04-17T23:39:05.000Z</time></trkpt>
        <trkpt lat="28.766331" lon="104.60315"><ele>440.06424</ele><time>2026-04-17T23:39:09.000Z</time></trkpt>
        <trkpt lat="28.766315" lon="104.603089"><ele>438.7719</ele><time>2026-04-17T23:39:13.000Z</time></trkpt>
        <trkpt lat="28.766296" lon="104.603025"><ele>440.29288</ele><time>2026-04-17T23:39:16.000Z</time></trkpt>
        <trkpt lat="28.766211" lon="104.602869"><ele>440.89615</ele><time>2026-04-17T23:39:26.000Z</time></trkpt>
        <trkpt lat="28.766184" lon="104.602809"><ele>440.59894</ele><time>2026-04-17T23:39:29.000Z</time></trkpt>
        <trkpt lat="28.766158" lon="104.602765"><ele>441.10825</ele><time>2026-04-17T23:39:32.000Z</time></trkpt>
        <trkpt lat="28.766132" lon="104.602714"><ele>440.71045</ele><time>2026-04-17T23:39:37.000Z</time></trkpt>
        <trkpt lat="28.766101" lon="104.602672"><ele>439.9574</ele><time>2026-04-17T23:39:41.000Z</time></trkpt>
        <trkpt lat="28.766063" lon="104.602628"><ele>439.71533</ele><time>2026-04-17T23:39:46.000Z</time></trkpt>
        <trkpt lat="28.766029" lon="104.602585"><ele>437.96234</ele><time>2026-04-17T23:39:51.000Z</time></trkpt>
        <trkpt lat="28.765993" lon="104.602547"><ele>437.37024</ele><time>2026-04-17T23:39:59.000Z</time></trkpt>
        <trkpt lat="28.765959" lon="104.602512"><ele>437.33047</ele><time>2026-04-17T23:40:04.000Z</time></trkpt>
        <trkpt lat="28.765918" lon="104.60248"><ele>436.53064</ele><time>2026-04-17T23:40:09.000Z</time></trkpt>
        <trkpt lat="28.76588" lon="104.602428"><ele>436.0575</ele><time>2026-04-17T23:40:14.000Z</time></trkpt>
        <trkpt lat="28.765848" lon="104.602368"><ele>433.7707</ele><time>2026-04-17T23:40:19.000Z</time></trkpt>
        <trkpt lat="28.765776" lon="104.602441"><ele>434.03027</ele><time>2026-04-17T23:43:04.000Z</time></trkpt>
        <trkpt lat="28.765759" lon="104.602493"><ele>434.45102</ele><time>2026-04-17T23:43:14.000Z</time></trkpt>
        <trkpt lat="28.765728" lon="104.602543"><ele>434.69125</ele><time>2026-04-17T23:43:21.000Z</time></trkpt>
        <trkpt lat="28.76568" lon="104.602557"><ele>435.27313</ele><time>2026-04-17T23:43:30.000Z</time></trkpt>
        <trkpt lat="28.765645" lon="104.602605"><ele>432.64102</ele><time>2026-04-17T23:43:42.000Z</time></trkpt>
        <trkpt lat="28.765656" lon="104.602555"><ele>433.1802</ele><time>2026-04-17T23:43:50.000Z</time></trkpt>
        <trkpt lat="28.76564" lon="104.602506"><ele>435.29865</ele><time>2026-04-17T23:43:55.000Z</time></trkpt>
        <trkpt lat="28.765601" lon="104.602477"><ele>436.1713</ele><time>2026-04-17T23:44:10.000Z</time></trkpt>
        <trkpt lat="28.765555" lon="104.602481"><ele>437.37784</ele><time>2026-04-17T23:44:17.000Z</time></trkpt>
        <trkpt lat="28.765515" lon="104.602516"><ele>438.51462</ele><time>2026-04-17T23:44:53.000Z</time></trkpt>
        <trkpt lat="28.765473" lon="104.602535"><ele>437.2475</ele><time>2026-04-17T23:44:59.000Z</time></trkpt>
        <trkpt lat="28.765369" lon="104.602563"><ele>436.95248</ele><time>2026-04-17T23:45:09.000Z</time></trkpt>
        <trkpt lat="28.765328" lon="104.602531"><ele>436.13345</ele><time>2026-04-17T23:45:30.000Z</time></trkpt>
        <trkpt lat="28.765291" lon="104.602485"><ele>434.2244</ele><time>2026-04-17T23:45:34.000Z</time></trkpt>
        <trkpt lat="28.765221" lon="104.60237"><ele>436.32733</ele><time>2026-04-17T23:45:42.000Z</time></trkpt>
        <trkpt lat="28.765184" lon="104.602323"><ele>437.1485</ele><time>2026-04-17T23:45:46.000Z</time></trkpt>
        <trkpt lat="28.76516" lon="104.602273"><ele>435.9324</ele><time>2026-04-17T23:45:49.000Z</time></trkpt>
        <trkpt lat="28.765131" lon="104.602217"><ele>436.9106</ele><time>2026-04-17T23:45:53.000Z</time></trkpt>
        <trkpt lat="28.765096" lon="104.602171"><ele>437.0226</ele><time>2026-04-17T23:45:56.000Z</time></trkpt>
        <trkpt lat="28.765069" lon="104.60213"><ele>437.24622</ele><time>2026-04-17T23:46:00.000Z</time></trkpt>
        <trkpt lat="28.765048" lon="104.602079"><ele>437.21283</ele><time>2026-04-17T23:46:05.000Z</time></trkpt>
        <trkpt lat="28.765032" lon="104.602028"><ele>438.29938</ele><time>2026-04-17T23:46:11.000Z</time></trkpt>
        <trkpt lat="28.765015" lon="104.601979"><ele>438.94028</ele><time>2026-04-17T23:46:16.000Z</time></trkpt>
        <trkpt lat="28.764991" lon="104.601929"><ele>439.551</ele><time>2026-04-17T23:46:29.000Z</time></trkpt>
        <trkpt lat="28.764944" lon="104.601899"><ele>438.26318</ele><time>2026-04-17T23:46:56.000Z</time></trkpt>
        <trkpt lat="28.764944" lon="104.601847"><ele>436.90784</ele><time>2026-04-17T23:47:04.000Z</time></trkpt>
        <trkpt lat="28.764908" lon="104.601812"><ele>435.38086</ele><time>2026-04-17T23:47:27.000Z</time></trkpt>
        <trkpt lat="28.764785" lon="104.601646"><ele>431.5296</ele><time>2026-04-17T23:47:48.000Z</time></trkpt>
        <trkpt lat="28.764742" lon="104.601664"><ele>430.5577</ele><time>2026-04-17T23:48:09.000Z</time></trkpt>
        <trkpt lat="28.764688" lon="104.60166"><ele>428.15604</ele><time>2026-04-17T23:48:20.000Z</time></trkpt>
        <trkpt lat="28.764646" lon="104.601636"><ele>426.77365</ele><time>2026-04-17T23:48:29.000Z</time></trkpt>
        <trkpt lat="28.764608" lon="104.601606"><ele>425.71658</ele><time>2026-04-17T23:48:35.000Z</time></trkpt>
        <trkpt lat="28.764568" lon="104.601641"><ele>424.14276</ele><time>2026-04-17T23:48:44.000Z</time></trkpt>
        <trkpt lat="28.764531" lon="104.601686"><ele>425.09464</ele><time>2026-04-17T23:48:51.000Z</time></trkpt>
        <trkpt lat="28.764501" lon="104.601735"><ele>423.94702</ele><time>2026-04-17T23:49:03.000Z</time></trkpt>
        <trkpt lat="28.764462" lon="104.601763"><ele>421.9575</ele><time>2026-04-17T23:49:18.000Z</time></trkpt>
        <trkpt lat="28.764424" lon="104.601793"><ele>421.67044</ele><time>2026-04-17T23:49:37.000Z</time></trkpt>
        <trkpt lat="28.764376" lon="104.601786"><ele>418.1235</ele><time>2026-04-17T23:50:03.000Z</time></trkpt>
        <trkpt lat="28.764342" lon="104.601833"><ele>415.6116</ele><time>2026-04-17T23:50:11.000Z</time></trkpt>
        <trkpt lat="28.764296" lon="104.601846"><ele>413.85147</ele><time>2026-04-17T23:50:18.000Z</time></trkpt>
        <trkpt lat="28.764247" lon="104.601863"><ele>411.8361</ele><time>2026-04-17T23:50:26.000Z</time></trkpt>
        <trkpt lat="28.764274" lon="104.601905"><ele>411.02814</ele><time>2026-04-17T23:50:29.000Z</time></trkpt>
        <trkpt lat="28.764276" lon="104.601961"><ele>408.47034</ele><time>2026-04-17T23:50:36.000Z</time></trkpt>
        <trkpt lat="28.764243" lon="104.602002"><ele>407.6138</ele><time>2026-04-17T23:50:42.000Z</time></trkpt>
        <trkpt lat="28.764216" lon="104.602044"><ele>407.45557</ele><time>2026-04-17T23:50:49.000Z</time></trkpt>
        <trkpt lat="28.764181" lon="104.602003"><ele>405.5969</ele><time>2026-04-17T23:51:03.000Z</time></trkpt>
        <trkpt lat="28.764145" lon="104.601967"><ele>404.2062</ele><time>2026-04-17T23:51:08.000Z</time></trkpt>
        <trkpt lat="28.764095" lon="104.601962"><ele>402.94022</ele><time>2026-04-17T23:51:14.000Z</time></trkpt>
        <trkpt lat="28.764043" lon="104.601977"><ele>401.4425</ele><time>2026-04-17T23:51:21.000Z</time></trkpt>
        <trkpt lat="28.764087" lon="104.602121"><ele>400.58813</ele><time>2026-04-17T23:51:30.000Z</time></trkpt>
        <trkpt lat="28.764118" lon="104.602164"><ele>400.92242</ele><time>2026-04-17T23:51:33.000Z</time></trkpt>
        <trkpt lat="28.764046" lon="104.602081"><ele>398.87704</ele><time>2026-04-17T23:51:47.000Z</time></trkpt>
        <trkpt lat="28.764008" lon="104.602049"><ele>398.97943</ele><time>2026-04-17T23:51:50.000Z</time></trkpt>
        <trkpt lat="28.763971" lon="104.602015"><ele>399.26917</ele><time>2026-04-17T23:51:55.000Z</time></trkpt>
        <trkpt lat="28.763906" lon="104.601919"><ele>398.79608</ele><time>2026-04-17T23:52:03.000Z</time></trkpt>
        <trkpt lat="28.76386" lon="104.601874"><ele>398.46765</ele><time>2026-04-17T23:52:08.000Z</time></trkpt>
        <trkpt lat="28.763813" lon="104.60184"><ele>398.78607</ele><time>2026-04-17T23:52:11.000Z</time></trkpt>
        <trkpt lat="28.763774" lon="104.601787"><ele>399.66772</ele><time>2026-04-17T23:52:16.000Z</time></trkpt>
        <trkpt lat="28.76373" lon="104.601755"><ele>398.38504</ele><time>2026-04-17T23:52:22.000Z</time></trkpt>
        <trkpt lat="28.763688" lon="104.601735"><ele>397.80994</ele><time>2026-04-17T23:52:27.000Z</time></trkpt>
        <trkpt lat="28.763715" lon="104.60169"><ele>397.24594</ele><time>2026-04-17T23:52:35.000Z</time></trkpt>
        <trkpt lat="28.763843" lon="104.601613"><ele>398.486</ele><time>2026-04-17T23:52:46.000Z</time></trkpt>
        <trkpt lat="28.76388" lon="104.601567"><ele>400.6494</ele><time>2026-04-17T23:52:52.000Z</time></trkpt>
        <trkpt lat="28.763873" lon="104.601508"><ele>403.6801</ele><time>2026-04-17T23:53:00.000Z</time></trkpt>
        <trkpt lat="28.763875" lon="104.601448"><ele>403.71198</ele><time>2026-04-17T23:53:08.000Z</time></trkpt>
        <trkpt lat="28.763872" lon="104.601393"><ele>403.0749</ele><time>2026-04-17T23:53:13.000Z</time></trkpt>
        <trkpt lat="28.763857" lon="104.601343"><ele>404.1508</ele><time>2026-04-17T23:53:19.000Z</time></trkpt>
        <trkpt lat="28.763837" lon="104.601284"><ele>404.73544</ele><time>2026-04-17T23:53:24.000Z</time></trkpt>
        <trkpt lat="28.76381" lon="104.601233"><ele>403.46274</ele><time>2026-04-17T23:53:30.000Z</time></trkpt>
        <trkpt lat="28.763751" lon="104.600971"><ele>402.70398</ele><time>2026-04-17T23:53:42.000Z</time></trkpt>
        <trkpt lat="28.763761" lon="104.600919"><ele>400.97766</ele><time>2026-04-17T23:53:48.000Z</time></trkpt>
        <trkpt lat="28.763759" lon="104.600868"><ele>401.58084</ele><time>2026-04-17T23:53:52.000Z</time></trkpt>
        <trkpt lat="28.763743" lon="104.600799"><ele>401.70975</ele><time>2026-04-17T23:53:58.000Z</time></trkpt>
        <trkpt lat="28.763745" lon="104.600733"><ele>401.37488</ele><time>2026-04-17T23:54:03.000Z</time></trkpt>
        <trkpt lat="28.763741" lon="104.600677"><ele>403.16794</ele><time>2026-04-17T23:54:07.000Z</time></trkpt>
        <trkpt lat="28.763719" lon="104.600625"><ele>404.37363</ele><time>2026-04-17T23:54:12.000Z</time></trkpt>
        <trkpt lat="28.763694" lon="104.600566"><ele>404.7403</ele><time>2026-04-17T23:54:16.000Z</time></trkpt>
        <trkpt lat="28.763644" lon="104.600517"><ele>405.1818</ele><time>2026-04-17T23:54:21.000Z</time></trkpt>
        <trkpt lat="28.763598" lon="104.600468"><ele>404.25287</ele><time>2026-04-17T23:54:25.000Z</time></trkpt>
        <trkpt lat="28.763558" lon="104.60044"><ele>404.38217</ele><time>2026-04-17T23:54:30.000Z</time></trkpt>
        <trkpt lat="28.763506" lon="104.600418"><ele>403.88733</ele><time>2026-04-17T23:54:37.000Z</time></trkpt>
        <trkpt lat="28.763475" lon="104.600367"><ele>403.74704</ele><time>2026-04-17T23:54:43.000Z</time></trkpt>
        <trkpt lat="28.763462" lon="104.600309"><ele>401.17847</ele><time>2026-04-17T23:54:47.000Z</time></trkpt>
        <trkpt lat="28.763437" lon="104.600259"><ele>401.19952</ele><time>2026-04-17T23:54:52.000Z</time></trkpt>
        <trkpt lat="28.763407" lon="104.60022"><ele>401.8641</ele><time>2026-04-17T23:54:56.000Z</time></trkpt>
        <trkpt lat="28.763377" lon="104.600177"><ele>402.7416</ele><time>2026-04-17T23:55:01.000Z</time></trkpt>
        <trkpt lat="28.763349" lon="104.600125"><ele>403.29712</ele><time>2026-04-17T23:55:06.000Z</time></trkpt>
        <trkpt lat="28.763324" lon="104.600068"><ele>402.53467</ele><time>2026-04-17T23:55:11.000Z</time></trkpt>
        <trkpt lat="28.763316" lon="104.600003"><ele>402.8904</ele><time>2026-04-17T23:55:15.000Z</time></trkpt>
        <trkpt lat="28.763309" lon="104.599944"><ele>402.48163</ele><time>2026-04-17T23:55:18.000Z</time></trkpt>
        <trkpt lat="28.76327" lon="104.599833"><ele>403.50757</ele><time>2026-04-17T23:55:27.000Z</time></trkpt>
        <trkpt lat="28.763229" lon="104.599783"><ele>404.60446</ele><time>2026-04-17T23:55:31.000Z</time></trkpt>
        <trkpt lat="28.763254" lon="104.599731"><ele>405.8291</ele><time>2026-04-17T23:55:36.000Z</time></trkpt>
        <trkpt lat="28.763255" lon="104.599673"><ele>406.90237</ele><time>2026-04-17T23:55:43.000Z</time></trkpt>
        <trkpt lat="28.763286" lon="104.599556"><ele>408.74057</ele><time>2026-04-17T23:55:50.000Z</time></trkpt>
        <trkpt lat="28.763287" lon="104.59949"><ele>408.74823</ele><time>2026-04-17T23:55:54.000Z</time></trkpt>
        <trkpt lat="28.763294" lon="104.599439"><ele>408.36166</ele><time>2026-04-17T23:56:00.000Z</time></trkpt>
        <trkpt lat="28.763279" lon="104.599382"><ele>408.38498</ele><time>2026-04-17T23:56:07.000Z</time></trkpt>
        <trkpt lat="28.763246" lon="104.599338"><ele>407.63156</ele><time>2026-04-17T23:56:13.000Z</time></trkpt>
        <trkpt lat="28.76324" lon="104.599273"><ele>405.48975</ele><time>2026-04-17T23:56:17.000Z</time></trkpt>
        <trkpt lat="28.763234" lon="104.59922"><ele>404.79056</ele><time>2026-04-17T23:56:20.000Z</time></trkpt>
        <trkpt lat="28.763223" lon="104.599141"><ele>404.37296</ele><time>2026-04-17T23:56:26.000Z</time></trkpt>
        <trkpt lat="28.763216" lon="104.59909"><ele>405.8377</ele><time>2026-04-17T23:56:30.000Z</time></trkpt>
        <trkpt lat="28.76321" lon="104.599029"><ele>406.0185</ele><time>2026-04-17T23:56:35.000Z</time></trkpt>
        <trkpt lat="28.76321" lon="104.59897"><ele>406.22864</ele><time>2026-04-17T23:56:40.000Z</time></trkpt>
        <trkpt lat="28.763243" lon="104.598933"><ele>407.17944</ele><time>2026-04-17T23:56:43.000Z</time></trkpt>
        <trkpt lat="28.76326" lon="104.598879"><ele>406.26224</ele><time>2026-04-17T23:56:47.000Z</time></trkpt>
        <trkpt lat="28.763285" lon="104.598822"><ele>408.04373</ele><time>2026-04-17T23:56:51.000Z</time></trkpt>
        <trkpt lat="28.763295" lon="104.598764"><ele>408.00284</ele><time>2026-04-17T23:56:55.000Z</time></trkpt>
        <trkpt lat="28.763306" lon="104.598708"><ele>408.03738</ele><time>2026-04-17T23:56:58.000Z</time></trkpt>
        <trkpt lat="28.763344" lon="104.598671"><ele>409.4371</ele><time>2026-04-17T23:57:03.000Z</time></trkpt>
        <trkpt lat="28.76339" lon="104.598679"><ele>407.91748</ele><time>2026-04-17T23:57:43.000Z</time></trkpt>
        <trkpt lat="28.763382" lon="104.598626"><ele>409.84915</ele><time>2026-04-17T23:59:03.000Z</time></trkpt>
        <trkpt lat="28.763355" lon="104.598576"><ele>407.25305</ele><time>2026-04-17T23:59:19.000Z</time></trkpt>
        <trkpt lat="28.76336" lon="104.598524"><ele>408.29938</ele><time>2026-04-17T23:59:27.000Z</time></trkpt>
        <trkpt lat="28.763409" lon="104.598511"><ele>408.7397</ele><time>2026-04-17T23:59:31.000Z</time></trkpt>
        <trkpt lat="28.763366" lon="104.598432"><ele>408.79388</ele><time>2026-04-18T00:00:20.000Z</time></trkpt>
        <trkpt lat="28.7634" lon="104.598434"><ele>408.5223</ele><time>2026-04-18T00:00:23.000Z</time></trkpt>
        <trkpt lat="28.763424" lon="104.598451"><ele>409.09433</ele><time>2026-04-18T00:00:28.000Z</time></trkpt>
        <trkpt lat="28.763364" lon="104.598444"><ele>409.2153</ele><time>2026-04-18T00:00:33.000Z</time></trkpt>
        <trkpt lat="28.763415" lon="104.598757"><ele>409.25018</ele><time>2026-04-18T00:01:27.000Z</time></trkpt>
        <trkpt lat="28.763469" lon="104.598747"><ele>410.75116</ele><time>2026-04-18T00:01:37.000Z</time></trkpt>
        <trkpt lat="28.763516" lon="104.59874"><ele>411.9401</ele><time>2026-04-18T00:01:46.000Z</time></trkpt>
        <trkpt lat="28.763557" lon="104.598717"><ele>412.61557</ele><time>2026-04-18T00:02:07.000Z</time></trkpt>
        <trkpt lat="28.763591" lon="104.598751"><ele>412.73254</ele><time>2026-04-18T00:02:12.000Z</time></trkpt>
        <trkpt lat="28.76364" lon="104.598775"><ele>413.26706</ele><time>2026-04-18T00:02:15.000Z</time></trkpt>
        <trkpt lat="28.763689" lon="104.598799"><ele>414.698</ele><time>2026-04-18T00:02:20.000Z</time></trkpt>
        <trkpt lat="28.763743" lon="104.598832"><ele>415.81354</ele><time>2026-04-18T00:02:26.000Z</time></trkpt>
        <trkpt lat="28.763783" lon="104.598862"><ele>415.66666</ele><time>2026-04-18T00:02:29.000Z</time></trkpt>
        <trkpt lat="28.763829" lon="104.598892"><ele>417.37714</ele><time>2026-04-18T00:02:34.000Z</time></trkpt>
        <trkpt lat="28.763876" lon="104.598922"><ele>417.52756</ele><time>2026-04-18T00:02:40.000Z</time></trkpt>
        <trkpt lat="28.763923" lon="104.598947"><ele>417.8974</ele><time>2026-04-18T00:02:45.000Z</time></trkpt>
        <trkpt lat="28.763967" lon="104.598961"><ele>418.26248</ele><time>2026-04-18T00:02:49.000Z</time></trkpt>
        <trkpt lat="28.764009" lon="104.598996"><ele>419.35846</ele><time>2026-04-18T00:02:53.000Z</time></trkpt>
        <trkpt lat="28.764056" lon="104.599015"><ele>419.30875</ele><time>2026-04-18T00:02:58.000Z</time></trkpt>
        <trkpt lat="28.764095" lon="104.599044"><ele>419.03113</ele><time>2026-04-18T00:03:01.000Z</time></trkpt>
        <trkpt lat="28.764141" lon="104.599057"><ele>418.47522</ele><time>2026-04-18T00:03:05.000Z</time></trkpt>
        <trkpt lat="28.764188" lon="104.599084"><ele>418.31055</ele><time>2026-04-18T00:03:09.000Z</time></trkpt>
        <trkpt lat="28.764242" lon="104.599101"><ele>418.86646</ele><time>2026-04-18T00:03:13.000Z</time></trkpt>
        <trkpt lat="28.764279" lon="104.599135"><ele>417.74045</ele><time>2026-04-18T00:03:17.000Z</time></trkpt>
        <trkpt lat="28.764331" lon="104.599165"><ele>418.16913</ele><time>2026-04-18T00:03:22.000Z</time></trkpt>
        <trkpt lat="28.764368" lon="104.599195"><ele>417.7328</ele><time>2026-04-18T00:03:25.000Z</time></trkpt>
        <trkpt lat="28.764402" lon="104.599236"><ele>418.529</ele><time>2026-04-18T00:03:28.000Z</time></trkpt>
        <trkpt lat="28.76444" lon="104.599276"><ele>418.95563</ele><time>2026-04-18T00:03:32.000Z</time></trkpt>
        <trkpt lat="28.764475" lon="104.599311"><ele>418.3569</ele><time>2026-04-18T00:03:36.000Z</time></trkpt>
        <trkpt lat="28.76452" lon="104.599336"><ele>419.48752</ele><time>2026-04-18T00:03:42.000Z</time></trkpt>
        <trkpt lat="28.764567" lon="104.59936"><ele>418.51868</ele><time>2026-04-18T00:03:48.000Z</time></trkpt>
        <trkpt lat="28.764606" lon="104.599403"><ele>417.41235</ele><time>2026-04-18T00:03:53.000Z</time></trkpt>
        <trkpt lat="28.764646" lon="104.599437"><ele>418.47235</ele><time>2026-04-18T00:03:58.000Z</time></trkpt>
        <trkpt lat="28.764659" lon="104.59949"><ele>419.4136</ele><time>2026-04-18T00:04:03.000Z</time></trkpt>
        <trkpt lat="28.76469" lon="104.59954"><ele>420.341</ele><time>2026-04-18T00:04:08.000Z</time></trkpt>
        <trkpt lat="28.764726" lon="104.599591"><ele>421.5084</ele><time>2026-04-18T00:04:14.000Z</time></trkpt>
        <trkpt lat="28.76476" lon="104.599641"><ele>422.7692</ele><time>2026-04-18T00:04:20.000Z</time></trkpt>
        <trkpt lat="28.764781" lon="104.59969"><ele>425.00452</ele><time>2026-04-18T00:04:35.000Z</time></trkpt>
        <trkpt lat="28.764805" lon="104.599739"><ele>426.3581</ele><time>2026-04-18T00:05:22.000Z</time></trkpt>
        <trkpt lat="28.764851" lon="104.599749"><ele>426.95786</ele><time>2026-04-18T00:05:35.000Z</time></trkpt>
        <trkpt lat="28.764894" lon="104.599781"><ele>427.14725</ele><time>2026-04-18T00:05:45.000Z</time></trkpt>
        <trkpt lat="28.764931" lon="104.599819"><ele>426.64517</ele><time>2026-04-18T00:05:53.000Z</time></trkpt>
        <trkpt lat="28.76497" lon="104.599856"><ele>427.37604</ele><time>2026-04-18T00:05:59.000Z</time></trkpt>
        <trkpt lat="28.765011" lon="104.599891"><ele>426.81717</ele><time>2026-04-18T00:06:05.000Z</time></trkpt>
        <trkpt lat="28.76505" lon="104.59992"><ele>426.86057</ele><time>2026-04-18T00:06:11.000Z</time></trkpt>
        <trkpt lat="28.765095" lon="104.599941"><ele>426.98853</ele><time>2026-04-18T00:06:17.000Z</time></trkpt>
        <trkpt lat="28.765134" lon="104.599983"><ele>426.98477</ele><time>2026-04-18T00:06:23.000Z</time></trkpt>
        <trkpt lat="28.765176" lon="104.600016"><ele>426.63107</ele><time>2026-04-18T00:06:29.000Z</time></trkpt>
        <trkpt lat="28.765199" lon="104.60006"><ele>427.00467</ele><time>2026-04-18T00:06:39.000Z</time></trkpt>
        <trkpt lat="28.765235" lon="104.600097"><ele>427.61368</ele><time>2026-04-18T00:06:47.000Z</time></trkpt>
        <trkpt lat="28.765269" lon="104.600141"><ele>427.6839</ele><time>2026-04-18T00:06:54.000Z</time></trkpt>
        <trkpt lat="28.765294" lon="104.600187"><ele>427.35803</ele><time>2026-04-18T00:07:00.000Z</time></trkpt>
        <trkpt lat="28.765328" lon="104.600224"><ele>427.39566</ele><time>2026-04-18T00:07:07.000Z</time></trkpt>
        <trkpt lat="28.76537" lon="104.600251"><ele>426.94153</ele><time>2026-04-18T00:07:15.000Z</time></trkpt>
        <trkpt lat="28.765409" lon="104.600292"><ele>427.6657</ele><time>2026-04-18T00:07:21.000Z</time></trkpt>
        <trkpt lat="28.765442" lon="104.600334"><ele>428.3143</ele><time>2026-04-18T00:07:26.000Z</time></trkpt>
        <trkpt lat="28.765481" lon="104.600373"><ele>428.69104</ele><time>2026-04-18T00:07:31.000Z</time></trkpt>
        <trkpt lat="28.765513" lon="104.600417"><ele>429.25275</ele><time>2026-04-18T00:07:36.000Z</time></trkpt>
        <trkpt lat="28.765542" lon="104.600457"><ele>430.68387</ele><time>2026-04-18T00:07:41.000Z</time></trkpt>
        <trkpt lat="28.765582" lon="104.600491"><ele>430.978</ele><time>2026-04-18T00:07:46.000Z</time></trkpt>
        <trkpt lat="28.765627" lon="104.60052"><ele>431.63284</ele><time>2026-04-18T00:07:52.000Z</time></trkpt>
        <trkpt lat="28.765669" lon="104.600552"><ele>431.9831</ele><time>2026-04-18T00:07:57.000Z</time></trkpt>
        <trkpt lat="28.76571" lon="104.600587"><ele>432.2813</ele><time>2026-04-18T00:08:03.000Z</time></trkpt>
        <trkpt lat="28.765739" lon="104.600631"><ele>434.7666</ele><time>2026-04-18T00:08:15.000Z</time></trkpt>
        <trkpt lat="28.765783" lon="104.600647"><ele>432.5382</ele><time>2026-04-18T00:08:22.000Z</time></trkpt>
        <trkpt lat="28.765831" lon="104.600684"><ele>432.089</ele><time>2026-04-18T00:08:27.000Z</time></trkpt>
        <trkpt lat="28.765881" lon="104.600693"><ele>431.46698</ele><time>2026-04-18T00:08:37.000Z</time></trkpt>
        <trkpt lat="28.76593" lon="104.600694"><ele>430.21558</ele><time>2026-04-18T00:08:49.000Z</time></trkpt>
        <trkpt lat="28.766023" lon="104.600705"><ele>427.89505</ele><time>2026-04-18T00:08:59.000Z</time></trkpt>
        <trkpt lat="28.766066" lon="104.60074"><ele>427.06818</ele><time>2026-04-18T00:09:05.000Z</time></trkpt>
        <trkpt lat="28.766092" lon="104.600794"><ele>426.52036</ele><time>2026-04-18T00:09:09.000Z</time></trkpt>
        <trkpt lat="28.766103" lon="104.600847"><ele>426.45093</ele><time>2026-04-18T00:09:15.000Z</time></trkpt>
        <trkpt lat="28.766094" lon="104.6009"><ele>426.4081</ele><time>2026-04-18T00:09:19.000Z</time></trkpt>
        <trkpt lat="28.766018" lon="104.600973"><ele>425.5818</ele><time>2026-04-18T00:09:34.000Z</time></trkpt>
        <trkpt lat="28.765973" lon="104.601007"><ele>426.30392</ele><time>2026-04-18T00:09:39.000Z</time></trkpt>
        <trkpt lat="28.765933" lon="104.601056"><ele>425.59955</ele><time>2026-04-18T00:09:45.000Z</time></trkpt>
        <trkpt lat="28.7659" lon="104.601097"><ele>426.1811</ele><time>2026-04-18T00:09:52.000Z</time></trkpt>
        <trkpt lat="28.765868" lon="104.601142"><ele>425.87607</ele><time>2026-04-18T00:09:59.000Z</time></trkpt>
        <trkpt lat="28.765831" lon="104.601182"><ele>426.03372</ele><time>2026-04-18T00:10:03.000Z</time></trkpt>
        <trkpt lat="28.765785" lon="104.601227"><ele>426.02457</ele><time>2026-04-18T00:10:07.000Z</time></trkpt>
        <trkpt lat="28.765751" lon="104.601264"><ele>426.4697</ele><time>2026-04-18T00:10:12.000Z</time></trkpt>
        <trkpt lat="28.765743" lon="104.601315"><ele>427.06744</ele><time>2026-04-18T00:10:18.000Z</time></trkpt>
        <trkpt lat="28.765734" lon="104.601371"><ele>427.37695</ele><time>2026-04-18T00:10:23.000Z</time></trkpt>
        <trkpt lat="28.76572" lon="104.601426"><ele>426.60104</ele><time>2026-04-18T00:10:27.000Z</time></trkpt>
        <trkpt lat="28.765712" lon="104.601479"><ele>426.862</ele><time>2026-04-18T00:10:31.000Z</time></trkpt>
        <trkpt lat="28.765725" lon="104.601533"><ele>426.89932</ele><time>2026-04-18T00:10:37.000Z</time></trkpt>
        <trkpt lat="28.765737" lon="104.601583"><ele>427.69333</ele><time>2026-04-18T00:10:42.000Z</time></trkpt>
        <trkpt lat="28.765754" lon="104.601644"><ele>427.94812</ele><time>2026-04-18T00:10:47.000Z</time></trkpt>
        <trkpt lat="28.765767" lon="104.601703"><ele>428.903</ele><time>2026-04-18T00:10:52.000Z</time></trkpt>
        <trkpt lat="28.765786" lon="104.601753"><ele>429.50262</ele><time>2026-04-18T00:10:56.000Z</time></trkpt>
        <trkpt lat="28.765829" lon="104.601787"><ele>429.6398</ele><time>2026-04-18T00:11:04.000Z</time></trkpt>
        <trkpt lat="28.765843" lon="104.601895"><ele>429.92206</ele><time>2026-04-18T00:11:14.000Z</time></trkpt>
        <trkpt lat="28.765999" lon="104.601946"><ele>431.6485</ele><time>2026-04-18T00:11:32.000Z</time></trkpt>
        <trkpt lat="28.765946" lon="104.601936"><ele>429.63663</ele><time>2026-04-18T00:11:51.000Z</time></trkpt>
        <trkpt lat="28.765903" lon="104.601917"><ele>429.55804</ele><time>2026-04-18T00:11:57.000Z</time></trkpt>
        <trkpt lat="28.765877" lon="104.601865"><ele>429.44965</ele><time>2026-04-18T00:12:02.000Z</time></trkpt>
        <trkpt lat="28.76585" lon="104.60181"><ele>428.5113</ele><time>2026-04-18T00:12:07.000Z</time></trkpt>
        <trkpt lat="28.765823" lon="104.601752"><ele>427.6056</ele><time>2026-04-18T00:12:12.000Z</time></trkpt>
        <trkpt lat="28.765802" lon="104.601691"><ele>427.05652</ele><time>2026-04-18T00:12:17.000Z</time></trkpt>
        <trkpt lat="28.765767" lon="104.601648"><ele>427.4929</ele><time>2026-04-18T00:12:23.000Z</time></trkpt>
        <trkpt lat="28.765738" lon="104.601601"><ele>429.5338</ele><time>2026-04-18T00:12:30.000Z</time></trkpt>
        <trkpt lat="28.765717" lon="104.601539"><ele>429.83765</ele><time>2026-04-18T00:12:35.000Z</time></trkpt>
        <trkpt lat="28.765706" lon="104.601489"><ele>429.0441</ele><time>2026-04-18T00:12:38.000Z</time></trkpt>
        <trkpt lat="28.76571" lon="104.601423"><ele>428.45078</ele><time>2026-04-18T00:12:42.000Z</time></trkpt>
        <trkpt lat="28.765727" lon="104.601372"><ele>428.70236</ele><time>2026-04-18T00:12:46.000Z</time></trkpt>
        <trkpt lat="28.76574" lon="104.601316"><ele>428.55032</ele><time>2026-04-18T00:12:50.000Z</time></trkpt>
        <trkpt lat="28.76576" lon="104.601259"><ele>427.86032</ele><time>2026-04-18T00:12:54.000Z</time></trkpt>
        <trkpt lat="28.765784" lon="104.601202"><ele>428.18735</ele><time>2026-04-18T00:12:59.000Z</time></trkpt>
        <trkpt lat="28.765811" lon="104.60116"><ele>428.32092</ele><time>2026-04-18T00:13:03.000Z</time></trkpt>
        <trkpt lat="28.76585" lon="104.601126"><ele>428.01624</ele><time>2026-04-18T00:13:07.000Z</time></trkpt>
        <trkpt lat="28.765882" lon="104.60108"><ele>427.357</ele><time>2026-04-18T00:13:12.000Z</time></trkpt>
        <trkpt lat="28.765923" lon="104.601054"><ele>427.0218</ele><time>2026-04-18T00:13:16.000Z</time></trkpt>
        <trkpt lat="28.765966" lon="104.601011"><ele>426.41733</ele><time>2026-04-18T00:13:21.000Z</time></trkpt>
        <trkpt lat="28.766005" lon="104.600973"><ele>426.12466</ele><time>2026-04-18T00:13:26.000Z</time></trkpt>
        <trkpt lat="28.766046" lon="104.600937"><ele>426.12454</ele><time>2026-04-18T00:13:30.000Z</time></trkpt>
        <trkpt lat="28.766076" lon="104.600882"><ele>425.8065</ele><time>2026-04-18T00:13:34.000Z</time></trkpt>
        <trkpt lat="28.766109" lon="104.600839"><ele>425.57806</ele><time>2026-04-18T00:13:39.000Z</time></trkpt>
        <trkpt lat="28.766113" lon="104.600777"><ele>425.16602</ele><time>2026-04-18T00:13:44.000Z</time></trkpt>
        <trkpt lat="28.76616" lon="104.600869"><ele>424.30594</ele><time>2026-04-18T00:13:58.000Z</time></trkpt>
        <trkpt lat="28.766147" lon="104.600918"><ele>423.83713</ele><time>2026-04-18T00:14:02.000Z</time></trkpt>
        <trkpt lat="28.766142" lon="104.600975"><ele>422.78217</ele><time>2026-04-18T00:14:06.000Z</time></trkpt>
        <trkpt lat="28.766072" lon="104.601047"><ele>422.1836</ele><time>2026-04-18T00:14:16.000Z</time></trkpt>
        <trkpt lat="28.766046" lon="104.60109"><ele>422.44785</ele><time>2026-04-18T00:14:20.000Z</time></trkpt>
        <trkpt lat="28.766016" lon="104.60114"><ele>422.4927</ele><time>2026-04-18T00:14:26.000Z</time></trkpt>
        <trkpt lat="28.765997" lon="104.601203"><ele>422.48206</ele><time>2026-04-18T00:14:32.000Z</time></trkpt>
        <trkpt lat="28.765959" lon="104.601261"><ele>422.451</ele><time>2026-04-18T00:14:36.000Z</time></trkpt>
        <trkpt lat="28.765939" lon="104.601308"><ele>422.65598</ele><time>2026-04-18T00:14:39.000Z</time></trkpt>
        <trkpt lat="28.765919" lon="104.601362"><ele>423.2008</ele><time>2026-04-18T00:14:43.000Z</time></trkpt>
        <trkpt lat="28.765905" lon="104.601427"><ele>424.05737</ele><time>2026-04-18T00:14:47.000Z</time></trkpt>
        <trkpt lat="28.765911" lon="104.601482"><ele>424.75104</ele><time>2026-04-18T00:14:52.000Z</time></trkpt>
        <trkpt lat="28.765921" lon="104.601534"><ele>424.57214</ele><time>2026-04-18T00:14:59.000Z</time></trkpt>
        <trkpt lat="28.765948" lon="104.601583"><ele>424.23907</ele><time>2026-04-18T00:16:11.000Z</time></trkpt>
        <trkpt lat="28.76599" lon="104.601566"><ele>424.0545</ele><time>2026-04-18T00:16:17.000Z</time></trkpt>
        <trkpt lat="28.766037" lon="104.60156"><ele>423.0498</ele><time>2026-04-18T00:16:24.000Z</time></trkpt>
        <trkpt lat="28.766098" lon="104.601546"><ele>422.49136</ele><time>2026-04-18T00:16:30.000Z</time></trkpt>
        <trkpt lat="28.766151" lon="104.601552"><ele>421.6173</ele><time>2026-04-18T00:16:34.000Z</time></trkpt>
        <trkpt lat="28.766199" lon="104.601556"><ele>421.1195</ele><time>2026-04-18T00:16:37.000Z</time></trkpt>
        <trkpt lat="28.766244" lon="104.601554"><ele>421.05173</ele><time>2026-04-18T00:16:40.000Z</time></trkpt>
        <trkpt lat="28.766404" lon="104.60142"><ele>416.6848</ele><time>2026-04-18T00:17:01.000Z</time></trkpt>
        <trkpt lat="28.766442" lon="104.601391"><ele>416.02768</ele><time>2026-04-18T00:17:05.000Z</time></trkpt>
        <trkpt lat="28.766509" lon="104.601315"><ele>414.92426</ele><time>2026-04-18T00:17:11.000Z</time></trkpt>
        <trkpt lat="28.766558" lon="104.601312"><ele>414.0891</ele><time>2026-04-18T00:17:14.000Z</time></trkpt>
        <trkpt lat="28.766612" lon="104.601325"><ele>413.5737</ele><time>2026-04-18T00:17:18.000Z</time></trkpt>
        <trkpt lat="28.766671" lon="104.601334"><ele>414.29443</ele><time>2026-04-18T00:17:22.000Z</time></trkpt>
        <trkpt lat="28.766715" lon="104.601349"><ele>412.98566</ele><time>2026-04-18T00:17:27.000Z</time></trkpt>
        <trkpt lat="28.76676" lon="104.601336"><ele>413.1024</ele><time>2026-04-18T00:17:30.000Z</time></trkpt>
        <trkpt lat="28.766814" lon="104.601308"><ele>413.2026</ele><time>2026-04-18T00:17:36.000Z</time></trkpt>
        <trkpt lat="28.766853" lon="104.60128"><ele>413.1014</ele><time>2026-04-18T00:17:40.000Z</time></trkpt>
        <trkpt lat="28.76691" lon="104.601063"><ele>411.06827</ele><time>2026-04-18T00:18:00.000Z</time></trkpt>
        <trkpt lat="28.766954" lon="104.601033"><ele>410.28128</ele><time>2026-04-18T00:18:04.000Z</time></trkpt>
        <trkpt lat="28.766976" lon="104.600983"><ele>409.80908</ele><time>2026-04-18T00:18:08.000Z</time></trkpt>
        <trkpt lat="28.766992" lon="104.600934"><ele>409.02576</ele><time>2026-04-18T00:18:12.000Z</time></trkpt>
        <trkpt lat="28.767004" lon="104.600859"><ele>409.01022</ele><time>2026-04-18T00:18:19.000Z</time></trkpt>
        <trkpt lat="28.767046" lon="104.600755"><ele>407.70477</ele><time>2026-04-18T00:18:25.000Z</time></trkpt>
        <trkpt lat="28.767058" lon="104.600702"><ele>407.47665</ele><time>2026-04-18T00:18:29.000Z</time></trkpt>
        <trkpt lat="28.767088" lon="104.600655"><ele>406.758</ele><time>2026-04-18T00:18:33.000Z</time></trkpt>
        <trkpt lat="28.767176" lon="104.600616"><ele>405.31326</ele><time>2026-04-18T00:18:42.000Z</time></trkpt>
        <trkpt lat="28.767224" lon="104.600595"><ele>405.6653</ele><time>2026-04-18T00:18:47.000Z</time></trkpt>
        <trkpt lat="28.767283" lon="104.600589"><ele>406.2304</ele><time>2026-04-18T00:18:51.000Z</time></trkpt>
        <trkpt lat="28.767329" lon="104.600579"><ele>406.4173</ele><time>2026-04-18T00:18:55.000Z</time></trkpt>
        <trkpt lat="28.767374" lon="104.600563"><ele>406.8176</ele><time>2026-04-18T00:19:00.000Z</time></trkpt>
        <trkpt lat="28.76742" lon="104.600558"><ele>405.77032</ele><time>2026-04-18T00:19:06.000Z</time></trkpt>
        <trkpt lat="28.767465" lon="104.600546"><ele>404.875</ele><time>2026-04-18T00:19:12.000Z</time></trkpt>
        <trkpt lat="28.76751" lon="104.600554"><ele>404.78995</ele><time>2026-04-18T00:19:17.000Z</time></trkpt>
        <trkpt lat="28.767555" lon="104.600565"><ele>404.70557</ele><time>2026-04-18T00:19:21.000Z</time></trkpt>
        <trkpt lat="28.767606" lon="104.600576"><ele>404.963</ele><time>2026-04-18T00:19:25.000Z</time></trkpt>
        <trkpt lat="28.76765" lon="104.600584"><ele>405.16348</ele><time>2026-04-18T00:19:29.000Z</time></trkpt>
        <trkpt lat="28.767728" lon="104.600678"><ele>405.99084</ele><time>2026-04-18T00:19:39.000Z</time></trkpt>
        <trkpt lat="28.767769" lon="104.600703"><ele>406.89212</ele><time>2026-04-18T00:19:42.000Z</time></trkpt>
        <trkpt lat="28.767923" lon="104.600846"><ele>405.44998</ele><time>2026-04-18T00:20:04.000Z</time></trkpt>
        <trkpt lat="28.767972" lon="104.600873"><ele>404.80347</ele><time>2026-04-18T00:20:09.000Z</time></trkpt>
        <trkpt lat="28.768019" lon="104.60089"><ele>404.77997</ele><time>2026-04-18T00:20:13.000Z</time></trkpt>
        <trkpt lat="28.768063" lon="104.60091"><ele>404.31027</ele><time>2026-04-18T00:20:19.000Z</time></trkpt>
        <trkpt lat="28.768109" lon="104.600912"><ele>404.1136</ele><time>2026-04-18T00:20:27.000Z</time></trkpt>
        <trkpt lat="28.768166" lon="104.600924"><ele>403.0324</ele><time>2026-04-18T00:20:32.000Z</time></trkpt>
        <trkpt lat="28.768215" lon="104.600938"><ele>401.61844</ele><time>2026-04-18T00:20:37.000Z</time></trkpt>
        <trkpt lat="28.76826" lon="104.60095"><ele>401.24823</ele><time>2026-04-18T00:20:41.000Z</time></trkpt>
        <trkpt lat="28.768308" lon="104.600946"><ele>401.0977</ele><time>2026-04-18T00:20:49.000Z</time></trkpt>
        <trkpt lat="28.768347" lon="104.600916"><ele>400.89566</ele><time>2026-04-18T00:20:53.000Z</time></trkpt>
        <trkpt lat="28.768368" lon="104.60091"><ele>401.12692</ele><time>2026-04-18T00:22:09.000Z</time></trkpt>
        <trkpt lat="28.76842" lon="104.600915"><ele>401.04138</ele><time>2026-04-18T00:22:13.000Z</time></trkpt>
        <trkpt lat="28.768478" lon="104.600924"><ele>400.78506</ele><time>2026-04-18T00:22:20.000Z</time></trkpt>
        <trkpt lat="28.768526" lon="104.600909"><ele>400.7438</ele><time>2026-04-18T00:22:25.000Z</time></trkpt>
        <trkpt lat="28.768572" lon="104.60092"><ele>401.3948</ele><time>2026-04-18T00:22:29.000Z</time></trkpt>
        <trkpt lat="28.768624" lon="104.600918"><ele>399.96185</ele><time>2026-04-18T00:22:33.000Z</time></trkpt>
        <trkpt lat="28.768669" lon="104.600924"><ele>399.09402</ele><time>2026-04-18T00:22:40.000Z</time></trkpt>
        <trkpt lat="28.768718" lon="104.60094"><ele>398.6582</ele><time>2026-04-18T00:22:44.000Z</time></trkpt>
        <trkpt lat="28.768768" lon="104.60096"><ele>398.8202</ele><time>2026-04-18T00:22:50.000Z</time></trkpt>
        <trkpt lat="28.768824" lon="104.600978"><ele>397.13266</ele><time>2026-04-18T00:22:54.000Z</time></trkpt>
        <trkpt lat="28.768867" lon="104.600999"><ele>396.9995</ele><time>2026-04-18T00:22:57.000Z</time></trkpt>
        <trkpt lat="28.768959" lon="104.601022"><ele>395.82217</ele><time>2026-04-18T00:23:08.000Z</time></trkpt>
        <trkpt lat="28.769001" lon="104.601043"><ele>395.81116</ele><time>2026-04-18T00:23:12.000Z</time></trkpt>
        <trkpt lat="28.769048" lon="104.601055"><ele>395.97937</ele><time>2026-04-18T00:23:16.000Z</time></trkpt>
        <trkpt lat="28.769102" lon="104.601056"><ele>395.89023</ele><time>2026-04-18T00:23:22.000Z</time></trkpt>
        <trkpt lat="28.769152" lon="104.601059"><ele>396.37518</ele><time>2026-04-18T00:23:27.000Z</time></trkpt>
        <trkpt lat="28.769204" lon="104.601069"><ele>396.17615</ele><time>2026-04-18T00:23:31.000Z</time></trkpt>
        <trkpt lat="28.769259" lon="104.60108"><ele>395.77386</ele><time>2026-04-18T00:23:35.000Z</time></trkpt>
        <trkpt lat="28.769306" lon="104.601078"><ele>395.19952</ele><time>2026-04-18T00:23:39.000Z</time></trkpt>
        <trkpt lat="28.769348" lon="104.601106"><ele>394.86627</ele><time>2026-04-18T00:23:43.000Z</time></trkpt>
        <trkpt lat="28.769399" lon="104.601116"><ele>394.5751</ele><time>2026-04-18T00:23:47.000Z</time></trkpt>
        <trkpt lat="28.769509" lon="104.601131"><ele>393.26035</ele><time>2026-04-18T00:24:02.000Z</time></trkpt>
        <trkpt lat="28.769565" lon="104.601141"><ele>392.85434</ele><time>2026-04-18T00:24:06.000Z</time></trkpt>
        <trkpt lat="28.76962" lon="104.601147"><ele>392.19318</ele><time>2026-04-18T00:24:10.000Z</time></trkpt>
        <trkpt lat="28.769677" lon="104.601153"><ele>391.7101</ele><time>2026-04-18T00:24:15.000Z</time></trkpt>
        <trkpt lat="28.769722" lon="104.601162"><ele>390.72327</ele><time>2026-04-18T00:24:19.000Z</time></trkpt>
        <trkpt lat="28.769776" lon="104.60117"><ele>390.8267</ele><time>2026-04-18T00:24:24.000Z</time></trkpt>
        <trkpt lat="28.769826" lon="104.60118"><ele>390.18018</ele><time>2026-04-18T00:24:29.000Z</time></trkpt>
        <trkpt lat="28.769876" lon="104.60121"><ele>388.7173</ele><time>2026-04-18T00:24:33.000Z</time></trkpt>
        <trkpt lat="28.769927" lon="104.601229"><ele>386.97116</ele><time>2026-04-18T00:24:37.000Z</time></trkpt>
        <trkpt lat="28.769978" lon="104.601241"><ele>386.895</ele><time>2026-04-18T00:24:41.000Z</time></trkpt>
        <trkpt lat="28.770035" lon="104.601252"><ele>385.8859</ele><time>2026-04-18T00:24:46.000Z</time></trkpt>
        <trkpt lat="28.770086" lon="104.601236"><ele>385.22333</ele><time>2026-04-18T00:24:50.000Z</time></trkpt>
        <trkpt lat="28.770136" lon="104.601237"><ele>385.3708</ele><time>2026-04-18T00:24:54.000Z</time></trkpt>
        <trkpt lat="28.770181" lon="104.601233"><ele>384.39505</ele><time>2026-04-18T00:24:59.000Z</time></trkpt>
        <trkpt lat="28.770228" lon="104.601219"><ele>385.94678</ele><time>2026-04-18T00:25:03.000Z</time></trkpt>
        <trkpt lat="28.770319" lon="104.601251"><ele>385.45578</ele><time>2026-04-18T00:25:10.000Z</time></trkpt>
        <trkpt lat="28.770356" lon="104.601292"><ele>385.099</ele><time>2026-04-18T00:25:14.000Z</time></trkpt>
        <trkpt lat="28.770396" lon="104.601321"><ele>385.1088</ele><time>2026-04-18T00:25:18.000Z</time></trkpt>
        <trkpt lat="28.770444" lon="104.601351"><ele>385.285</ele><time>2026-04-18T00:25:23.000Z</time></trkpt>
        <trkpt lat="28.770469" lon="104.601395"><ele>384.63666</ele><time>2026-04-18T00:25:26.000Z</time></trkpt>
        <trkpt lat="28.77051" lon="104.60144"><ele>385.50198</ele><time>2026-04-18T00:25:31.000Z</time></trkpt>
        <trkpt lat="28.770556" lon="104.601467"><ele>385.7457</ele><time>2026-04-18T00:25:35.000Z</time></trkpt>
        <trkpt lat="28.770604" lon="104.601488"><ele>386.0115</ele><time>2026-04-18T00:25:40.000Z</time></trkpt>
        <trkpt lat="28.770652" lon="104.601503"><ele>386.35712</ele><time>2026-04-18T00:25:43.000Z</time></trkpt>
        <trkpt lat="28.770751" lon="104.601541"><ele>387.95493</ele><time>2026-04-18T00:25:53.000Z</time></trkpt>
        <trkpt lat="28.770795" lon="104.60156"><ele>388.01123</ele><time>2026-04-18T00:25:58.000Z</time></trkpt>
        <trkpt lat="28.770845" lon="104.601578"><ele>388.25046</ele><time>2026-04-18T00:26:02.000Z</time></trkpt>
        <trkpt lat="28.770896" lon="104.601588"><ele>388.29428</ele><time>2026-04-18T00:26:06.000Z</time></trkpt>
        <trkpt lat="28.770944" lon="104.60161"><ele>389.3067</ele><time>2026-04-18T00:26:12.000Z</time></trkpt>
        <trkpt lat="28.770993" lon="104.60163"><ele>388.8723</ele><time>2026-04-18T00:26:16.000Z</time></trkpt>
        <trkpt lat="28.771055" lon="104.60165"><ele>390.1037</ele><time>2026-04-18T00:26:20.000Z</time></trkpt>
        <trkpt lat="28.771106" lon="104.601667"><ele>390.1133</ele><time>2026-04-18T00:26:25.000Z</time></trkpt>
        <trkpt lat="28.77115" lon="104.60168"><ele>390.7655</ele><time>2026-04-18T00:26:29.000Z</time></trkpt>
        <trkpt lat="28.771207" lon="104.6017"><ele>390.16663</ele><time>2026-04-18T00:26:33.000Z</time></trkpt>
        <trkpt lat="28.771246" lon="104.601732"><ele>390.41586</ele><time>2026-04-18T00:26:38.000Z</time></trkpt>
        <trkpt lat="28.771293" lon="104.601764"><ele>390.33057</ele><time>2026-04-18T00:26:42.000Z</time></trkpt>
        <trkpt lat="28.771346" lon="104.601797"><ele>390.1099</ele><time>2026-04-18T00:26:46.000Z</time></trkpt>
        <trkpt lat="28.77143" lon="104.601859"><ele>389.6852</ele><time>2026-04-18T00:27:01.000Z</time></trkpt>
        <trkpt lat="28.771467" lon="104.601897"><ele>389.18427</ele><time>2026-04-18T00:27:08.000Z</time></trkpt>
        <trkpt lat="28.771558" lon="104.60193"><ele>388.38843</ele><time>2026-04-18T00:27:17.000Z</time></trkpt>
        <trkpt lat="28.771602" lon="104.601951"><ele>386.83743</ele><time>2026-04-18T00:27:21.000Z</time></trkpt>
        <trkpt lat="28.771654" lon="104.601963"><ele>385.54315</ele><time>2026-04-18T00:27:26.000Z</time></trkpt>
        <trkpt lat="28.7717" lon="104.601984"><ele>384.6243</ele><time>2026-04-18T00:27:30.000Z</time></trkpt>
        <trkpt lat="28.771736" lon="104.602035"><ele>383.72345</ele><time>2026-04-18T00:27:34.000Z</time></trkpt>
        <trkpt lat="28.771839" lon="104.602097"><ele>382.50198</ele><time>2026-04-18T00:27:42.000Z</time></trkpt>
        <trkpt lat="28.771875" lon="104.602136"><ele>381.82745</ele><time>2026-04-18T00:27:45.000Z</time></trkpt>
        <trkpt lat="28.771915" lon="104.602166"><ele>380.78073</ele><time>2026-04-18T00:27:49.000Z</time></trkpt>
        <trkpt lat="28.77195" lon="104.602202"><ele>380.99838</ele><time>2026-04-18T00:27:54.000Z</time></trkpt>
        <trkpt lat="28.772042" lon="104.602269"><ele>381.26807</ele><time>2026-04-18T00:28:03.000Z</time></trkpt>
        <trkpt lat="28.772149" lon="104.602292"><ele>381.7629</ele><time>2026-04-18T00:28:10.000Z</time></trkpt>
        <trkpt lat="28.772201" lon="104.602299"><ele>381.20178</ele><time>2026-04-18T00:28:15.000Z</time></trkpt>
        <trkpt lat="28.772253" lon="104.602315"><ele>381.55606</ele><time>2026-04-18T00:28:18.000Z</time></trkpt>
        <trkpt lat="28.772294" lon="104.60234"><ele>380.1412</ele><time>2026-04-18T00:28:22.000Z</time></trkpt>
        <trkpt lat="28.772344" lon="104.60236"><ele>380.31012</ele><time>2026-04-18T00:28:28.000Z</time></trkpt>
        <trkpt lat="28.772462" lon="104.602385"><ele>379.19946</ele><time>2026-04-18T00:28:35.000Z</time></trkpt>
        <trkpt lat="28.772516" lon="104.602398"><ele>379.34927</ele><time>2026-04-18T00:28:39.000Z</time></trkpt>
        <trkpt lat="28.772573" lon="104.602412"><ele>378.3149</ele><time>2026-04-18T00:28:45.000Z</time></trkpt>
        <trkpt lat="28.772626" lon="104.602426"><ele>378.09204</ele><time>2026-04-18T00:28:49.000Z</time></trkpt>
        <trkpt lat="28.772678" lon="104.602434"><ele>377.77753</ele><time>2026-04-18T00:28:53.000Z</time></trkpt>
        <trkpt lat="28.772727" lon="104.602459"><ele>379.29587</ele><time>2026-04-18T00:28:58.000Z</time></trkpt>
        <trkpt lat="28.772784" lon="104.60247"><ele>380.6425</ele><time>2026-04-18T00:29:02.000Z</time></trkpt>
        <trkpt lat="28.772834" lon="104.602475"><ele>381.4521</ele><time>2026-04-18T00:29:06.000Z</time></trkpt>
        <trkpt lat="28.772886" lon="104.602473"><ele>382.12192</ele><time>2026-04-18T00:29:10.000Z</time></trkpt>
        <trkpt lat="28.772934" lon="104.602466"><ele>382.5887</ele><time>2026-04-18T00:29:13.000Z</time></trkpt>
        <trkpt lat="28.772995" lon="104.602464"><ele>383.1207</ele><time>2026-04-18T00:29:18.000Z</time></trkpt>
        <trkpt lat="28.773044" lon="104.602456"><ele>382.51505</ele><time>2026-04-18T00:29:21.000Z</time></trkpt>
        <trkpt lat="28.7731" lon="104.602461"><ele>382.42892</ele><time>2026-04-18T00:29:24.000Z</time></trkpt>
        <trkpt lat="28.773151" lon="104.602469"><ele>382.59552</ele><time>2026-04-18T00:29:28.000Z</time></trkpt>
        <trkpt lat="28.773196" lon="104.602493"><ele>380.4716</ele><time>2026-04-18T00:29:33.000Z</time></trkpt>
        <trkpt lat="28.773244" lon="104.602516"><ele>379.77252</ele><time>2026-04-18T00:29:37.000Z</time></trkpt>
        <trkpt lat="28.773313" lon="104.602602"><ele>379.87735</ele><time>2026-04-18T00:29:45.000Z</time></trkpt>
        <trkpt lat="28.773358" lon="104.602613"><ele>380.08963</ele><time>2026-04-18T00:29:50.000Z</time></trkpt>
        <trkpt lat="28.77342" lon="104.602606"><ele>379.8913</ele><time>2026-04-18T00:29:54.000Z</time></trkpt>
        <trkpt lat="28.773471" lon="104.602615"><ele>380.47266</ele><time>2026-04-18T00:29:58.000Z</time></trkpt>
        <trkpt lat="28.773542" lon="104.602681"><ele>382.18503</ele><time>2026-04-18T00:30:06.000Z</time></trkpt>
        <trkpt lat="28.773659" lon="104.602693"><ele>382.92166</ele><time>2026-04-18T00:30:13.000Z</time></trkpt>
        <trkpt lat="28.773694" lon="104.602743"><ele>382.69705</ele><time>2026-04-18T00:30:19.000Z</time></trkpt>
        <trkpt lat="28.773725" lon="104.602782"><ele>382.81378</ele><time>2026-04-18T00:30:23.000Z</time></trkpt>
        <trkpt lat="28.773734" lon="104.602834"><ele>382.39645</ele><time>2026-04-18T00:30:27.000Z</time></trkpt>
        <trkpt lat="28.773813" lon="104.602911"><ele>382.707</ele><time>2026-04-18T00:30:33.000Z</time></trkpt>
        <trkpt lat="28.77386" lon="104.602931"><ele>383.05014</ele><time>2026-04-18T00:30:36.000Z</time></trkpt>
        <trkpt lat="28.773947" lon="104.603007"><ele>382.7979</ele><time>2026-04-18T00:30:45.000Z</time></trkpt>
        <trkpt lat="28.773981" lon="104.603044"><ele>383.37576</ele><time>2026-04-18T00:30:48.000Z</time></trkpt>
        <trkpt lat="28.774026" lon="104.603073"><ele>384.6998</ele><time>2026-04-18T00:30:52.000Z</time></trkpt>
        <trkpt lat="28.774065" lon="104.603215"><ele>386.29062</ele><time>2026-04-18T00:31:09.000Z</time></trkpt>
        <trkpt lat="28.774138" lon="104.603301"><ele>386.0835</ele><time>2026-04-18T00:32:09.000Z</time></trkpt>
        <trkpt lat="28.774166" lon="104.603354"><ele>385.74765</ele><time>2026-04-18T00:32:39.000Z</time></trkpt>
        <trkpt lat="28.774173" lon="104.603419"><ele>385.00888</ele><time>2026-04-18T00:32:44.000Z</time></trkpt>
        <trkpt lat="28.774185" lon="104.603481"><ele>385.47827</ele><time>2026-04-18T00:32:48.000Z</time></trkpt>
        <trkpt lat="28.774173" lon="104.603532"><ele>384.74908</ele><time>2026-04-18T00:32:54.000Z</time></trkpt>
        <trkpt lat="28.774179" lon="104.603584"><ele>384.38367</ele><time>2026-04-18T00:32:58.000Z</time></trkpt>
        <trkpt lat="28.774181" lon="104.603636"><ele>384.27042</ele><time>2026-04-18T00:33:03.000Z</time></trkpt>
        <trkpt lat="28.774189" lon="104.603688"><ele>383.63785</ele><time>2026-04-18T00:33:08.000Z</time></trkpt>
        <trkpt lat="28.774183" lon="104.603748"><ele>383.34274</ele><time>2026-04-18T00:33:13.000Z</time></trkpt>
        <trkpt lat="28.774183" lon="104.603814"><ele>382.65118</ele><time>2026-04-18T00:33:19.000Z</time></trkpt>
        <trkpt lat="28.774193" lon="104.603878"><ele>383.17767</ele><time>2026-04-18T00:33:24.000Z</time></trkpt>
        <trkpt lat="28.774206" lon="104.603933"><ele>382.96854</ele><time>2026-04-18T00:33:27.000Z</time></trkpt>
        <trkpt lat="28.774201" lon="104.603988"><ele>383.49075</ele><time>2026-04-18T00:33:32.000Z</time></trkpt>
        <trkpt lat="28.774203" lon="104.604041"><ele>383.8646</ele><time>2026-04-18T00:33:36.000Z</time></trkpt>
        <trkpt lat="28.7742" lon="104.604101"><ele>384.39362</ele><time>2026-04-18T00:33:40.000Z</time></trkpt>
        <trkpt lat="28.774199" lon="104.604163"><ele>383.9419</ele><time>2026-04-18T00:33:45.000Z</time></trkpt>
        <trkpt lat="28.774206" lon="104.604216"><ele>382.989</ele><time>2026-04-18T00:33:50.000Z</time></trkpt>
        <trkpt lat="28.774222" lon="104.604277"><ele>383.0279</ele><time>2026-04-18T00:33:54.000Z</time></trkpt>
        <trkpt lat="28.774248" lon="104.604326"><ele>383.30756</ele><time>2026-04-18T00:33:58.000Z</time></trkpt>
        <trkpt lat="28.774273" lon="104.60437"><ele>384.267</ele><time>2026-04-18T00:34:02.000Z</time></trkpt>
        <trkpt lat="28.774276" lon="104.604434"><ele>384.062</ele><time>2026-04-18T00:34:08.000Z</time></trkpt>
        <trkpt lat="28.774282" lon="104.604489"><ele>382.58646</ele><time>2026-04-18T00:34:14.000Z</time></trkpt>
        <trkpt lat="28.774303" lon="104.604543"><ele>381.9728</ele><time>2026-04-18T00:34:19.000Z</time></trkpt>
        <trkpt lat="28.774312" lon="104.604595"><ele>382.41415</ele><time>2026-04-18T00:34:23.000Z</time></trkpt>
        <trkpt lat="28.77432" lon="104.604646"><ele>381.87833</ele><time>2026-04-18T00:34:27.000Z</time></trkpt>
        <trkpt lat="28.774332" lon="104.604699"><ele>381.57886</ele><time>2026-04-18T00:34:30.000Z</time></trkpt>
        <trkpt lat="28.774351" lon="104.604759"><ele>382.22894</ele><time>2026-04-18T00:34:35.000Z</time></trkpt>
        <trkpt lat="28.774364" lon="104.604814"><ele>382.51074</ele><time>2026-04-18T00:34:40.000Z</time></trkpt>
        <trkpt lat="28.774378" lon="104.604865"><ele>382.3881</ele><time>2026-04-18T00:34:45.000Z</time></trkpt>
        <trkpt lat="28.774395" lon="104.60492"><ele>381.42966</ele><time>2026-04-18T00:34:50.000Z</time></trkpt>
        <trkpt lat="28.774393" lon="104.604977"><ele>381.19153</ele><time>2026-04-18T00:34:55.000Z</time></trkpt>
        <trkpt lat="28.774403" lon="104.605028"><ele>381.746</ele><time>2026-04-18T00:34:59.000Z</time></trkpt>
        <trkpt lat="28.774428" lon="104.605085"><ele>381.86743</ele><time>2026-04-18T00:35:04.000Z</time></trkpt>
        <trkpt lat="28.774426" lon="104.605143"><ele>382.0133</ele><time>2026-04-18T00:35:08.000Z</time></trkpt>
        <trkpt lat="28.774421" lon="104.605196"><ele>383.04462</ele><time>2026-04-18T00:35:12.000Z</time></trkpt>
        <trkpt lat="28.774405" lon="104.605245"><ele>382.7891</ele><time>2026-04-18T00:35:16.000Z</time></trkpt>
        <trkpt lat="28.774386" lon="104.605307"><ele>383.6144</ele><time>2026-04-18T00:35:20.000Z</time></trkpt>
        <trkpt lat="28.774363" lon="104.605353"><ele>383.13007</ele><time>2026-04-18T00:35:24.000Z</time></trkpt>
        <trkpt lat="28.774345" lon="104.605409"><ele>383.03085</ele><time>2026-04-18T00:35:28.000Z</time></trkpt>
        <trkpt lat="28.774319" lon="104.605458"><ele>383.3077</ele><time>2026-04-18T00:35:32.000Z</time></trkpt>
        <trkpt lat="28.774299" lon="104.605512"><ele>383.1651</ele><time>2026-04-18T00:35:36.000Z</time></trkpt>
        <trkpt lat="28.774282" lon="104.605564"><ele>382.81497</ele><time>2026-04-18T00:35:40.000Z</time></trkpt>
        <trkpt lat="28.774267" lon="104.60562"><ele>383.61115</ele><time>2026-04-18T00:35:44.000Z</time></trkpt>
        <trkpt lat="28.774252" lon="104.60567"><ele>384.87714</ele><time>2026-04-18T00:35:47.000Z</time></trkpt>
        <trkpt lat="28.774254" lon="104.605727"><ele>384.82416</ele><time>2026-04-18T00:35:51.000Z</time></trkpt>
        <trkpt lat="28.774262" lon="104.605782"><ele>385.03458</ele><time>2026-04-18T00:35:55.000Z</time></trkpt>
        <trkpt lat="28.774243" lon="104.605833"><ele>384.38696</ele><time>2026-04-18T00:36:00.000Z</time></trkpt>
        <trkpt lat="28.774206" lon="104.605879"><ele>383.79703</ele><time>2026-04-18T00:36:04.000Z</time></trkpt>
        <trkpt lat="28.774173" lon="104.605919"><ele>383.4868</ele><time>2026-04-18T00:36:08.000Z</time></trkpt>
        <trkpt lat="28.774132" lon="104.605945"><ele>383.54</ele><time>2026-04-18T00:36:12.000Z</time></trkpt>
        <trkpt lat="28.774114" lon="104.605998"><ele>383.65958</ele><time>2026-04-18T00:36:18.000Z</time></trkpt>
        <trkpt lat="28.774096" lon="104.606049"><ele>383.28772</ele><time>2026-04-18T00:36:21.000Z</time></trkpt>
        <trkpt lat="28.774071" lon="104.6061"><ele>382.86307</ele><time>2026-04-18T00:36:25.000Z</time></trkpt>
        <trkpt lat="28.774055" lon="104.606164"><ele>383.07285</ele><time>2026-04-18T00:36:29.000Z</time></trkpt>
        <trkpt lat="28.774056" lon="104.606215"><ele>384.34067</ele><time>2026-04-18T00:36:35.000Z</time></trkpt>
        <trkpt lat="28.774061" lon="104.606268"><ele>384.5936</ele><time>2026-04-18T00:36:38.000Z</time></trkpt>
        <trkpt lat="28.774087" lon="104.606396"><ele>384.3675</ele><time>2026-04-18T00:36:45.000Z</time></trkpt>
        <trkpt lat="28.77409" lon="104.606452"><ele>385.45218</ele><time>2026-04-18T00:36:49.000Z</time></trkpt>
        <trkpt lat="28.774102" lon="104.606512"><ele>385.4783</ele><time>2026-04-18T00:36:55.000Z</time></trkpt>
        <trkpt lat="28.774094" lon="104.606567"><ele>387.23312</ele><time>2026-04-18T00:37:00.000Z</time></trkpt>
        <trkpt lat="28.774074" lon="104.606618"><ele>388.1873</ele><time>2026-04-18T00:37:04.000Z</time></trkpt>
        <trkpt lat="28.774042" lon="104.606682"><ele>388.82004</ele><time>2026-04-18T00:37:07.000Z</time></trkpt>
        <trkpt lat="28.774029" lon="104.606808"><ele>390.0263</ele><time>2026-04-18T00:37:13.000Z</time></trkpt>
        <trkpt lat="28.774018" lon="104.606873"><ele>390.64035</ele><time>2026-04-18T00:37:16.000Z</time></trkpt>
        <trkpt lat="28.774124" lon="104.606762"><ele>391.36356</ele><time>2026-04-18T00:37:31.000Z</time></trkpt>
        <trkpt lat="28.774078" lon="104.606499"><ele>385.92258</ele><time>2026-04-18T00:37:56.000Z</time></trkpt>
        <trkpt lat="28.774114" lon="104.606454"><ele>385.3825</ele><time>2026-04-18T00:38:00.000Z</time></trkpt>
        <trkpt lat="28.774162" lon="104.606436"><ele>385.53036</ele><time>2026-04-18T00:38:04.000Z</time></trkpt>
        <trkpt lat="28.774214" lon="104.60641"><ele>385.59418</ele><time>2026-04-18T00:38:07.000Z</time></trkpt>
        <trkpt lat="28.774258" lon="104.606372"><ele>385.26996</ele><time>2026-04-18T00:38:10.000Z</time></trkpt>
        <trkpt lat="28.774294" lon="104.606333"><ele>384.43994</ele><time>2026-04-18T00:38:14.000Z</time></trkpt>
        <trkpt lat="28.774329" lon="104.60628"><ele>384.08768</ele><time>2026-04-18T00:38:17.000Z</time></trkpt>
        <trkpt lat="28.774351" lon="104.606228"><ele>384.467</ele><time>2026-04-18T00:38:20.000Z</time></trkpt>
        <trkpt lat="28.774387" lon="104.606165"><ele>385.13297</ele><time>2026-04-18T00:38:23.000Z</time></trkpt>
        <trkpt lat="28.774425" lon="104.606128"><ele>386.3951</ele><time>2026-04-18T00:38:25.000Z</time></trkpt>
        <trkpt lat="28.774461" lon="104.606084"><ele>386.95724</ele><time>2026-04-18T00:38:28.000Z</time></trkpt>
        <trkpt lat="28.774487" lon="104.605987"><ele>387.539</ele><time>2026-04-18T00:38:39.000Z</time></trkpt>
        <trkpt lat="28.77454" lon="104.605967"><ele>387.03546</ele><time>2026-04-18T00:38:46.000Z</time></trkpt>
        <trkpt lat="28.774592" lon="104.605956"><ele>387.67526</ele><time>2026-04-18T00:38:51.000Z</time></trkpt>
        <trkpt lat="28.774644" lon="104.605979"><ele>388.8081</ele><time>2026-04-18T00:38:56.000Z</time></trkpt>
        <trkpt lat="28.774669" lon="104.606024"><ele>389.8239</ele><time>2026-04-18T00:39:01.000Z</time></trkpt>
        <trkpt lat="28.774697" lon="104.606064"><ele>389.69073</ele><time>2026-04-18T00:39:05.000Z</time></trkpt>
        <trkpt lat="28.774795" lon="104.606117"><ele>390.91922</ele><time>2026-04-18T00:39:15.000Z</time></trkpt>
        <trkpt lat="28.774897" lon="104.606127"><ele>391.6292</ele><time>2026-04-18T00:39:22.000Z</time></trkpt>
        <trkpt lat="28.774952" lon="104.606121"><ele>391.4835</ele><time>2026-04-18T00:39:27.000Z</time></trkpt>
        <trkpt lat="28.775069" lon="104.606116"><ele>392.54504</ele><time>2026-04-18T00:39:34.000Z</time></trkpt>
        <trkpt lat="28.775118" lon="104.606121"><ele>392.68805</ele><time>2026-04-18T00:39:37.000Z</time></trkpt>
        <trkpt lat="28.775177" lon="104.606122"><ele>392.80893</ele><time>2026-04-18T00:39:42.000Z</time></trkpt>
        <trkpt lat="28.775313" lon="104.60624"><ele>390.88538</ele><time>2026-04-18T00:39:52.000Z</time></trkpt>
        <trkpt lat="28.775391" lon="104.606332"><ele>390.20288</ele><time>2026-04-18T00:39:58.000Z</time></trkpt>
        <trkpt lat="28.775316" lon="104.606318"><ele>389.90103</ele><time>2026-04-18T00:40:15.000Z</time></trkpt>
        <trkpt lat="28.77527" lon="104.606313"><ele>390.09915</ele><time>2026-04-18T00:40:21.000Z</time></trkpt>
        <trkpt lat="28.775081" lon="104.606221"><ele>391.67014</ele><time>2026-04-18T00:40:36.000Z</time></trkpt>
        <trkpt lat="28.774998" lon="104.606167"><ele>388.49478</ele><time>2026-04-18T00:40:46.000Z</time></trkpt>
        <trkpt lat="28.774957" lon="104.606137"><ele>392.23215</ele><time>2026-04-18T00:41:55.000Z</time></trkpt>
        <trkpt lat="28.77494" lon="104.606185"><ele>391.34454</ele><time>2026-04-18T00:42:09.000Z</time></trkpt>
        <trkpt lat="28.774972" lon="104.606228"><ele>390.95068</ele><time>2026-04-18T00:42:15.000Z</time></trkpt>
        <trkpt lat="28.774948" lon="104.606274"><ele>396.1134</ele><time>2026-04-18T00:42:24.000Z</time></trkpt>
        <trkpt lat="28.774976" lon="104.606315"><ele>397.73193</ele><time>2026-04-18T00:42:31.000Z</time></trkpt>
        <trkpt lat="28.775019" lon="104.606361"><ele>399.41187</ele><time>2026-04-18T00:42:44.000Z</time></trkpt>
        <trkpt lat="28.775102" lon="104.606434"><ele>400.01022</ele><time>2026-04-18T00:42:57.000Z</time></trkpt>
        <trkpt lat="28.775132" lon="104.606472"><ele>401.58502</ele><time>2026-04-18T00:43:08.000Z</time></trkpt>
        <trkpt lat="28.775089" lon="104.606497"><ele>402.45618</ele><time>2026-04-18T00:43:20.000Z</time></trkpt>
        <trkpt lat="28.775041" lon="104.606524"><ele>403.50754</ele><time>2026-04-18T00:43:27.000Z</time></trkpt>
        <trkpt lat="28.774991" lon="104.606535"><ele>404.74103</ele><time>2026-04-18T00:43:32.000Z</time></trkpt>
        <trkpt lat="28.775011" lon="104.606696"><ele>409.6934</ele><time>2026-04-18T00:43:47.000Z</time></trkpt>
        <trkpt lat="28.775062" lon="104.606748"><ele>408.65543</ele><time>2026-04-18T00:43:54.000Z</time></trkpt>
        <trkpt lat="28.775049" lon="104.606805"><ele>409.33618</ele><time>2026-04-18T00:43:59.000Z</time></trkpt>
        <trkpt lat="28.775037" lon="104.606863"><ele>409.95792</ele><time>2026-04-18T00:44:02.000Z</time></trkpt>
        <trkpt lat="28.774969" lon="104.606942"><ele>412.08524</ele><time>2026-04-18T00:44:10.000Z</time></trkpt>
        <trkpt lat="28.774901" lon="104.607058"><ele>413.17816</ele><time>2026-04-18T00:44:27.000Z</time></trkpt>
        <trkpt lat="28.77489" lon="104.607116"><ele>414.34723</ele><time>2026-04-18T00:44:38.000Z</time></trkpt>
        <trkpt lat="28.77488" lon="104.60717"><ele>414.21265</ele><time>2026-04-18T00:44:56.000Z</time></trkpt>
        <trkpt lat="28.774836" lon="104.607156"><ele>415.27985</ele><time>2026-04-18T00:45:05.000Z</time></trkpt>
        <trkpt lat="28.774772" lon="104.607371"><ele>416.38788</ele><time>2026-04-18T00:45:21.000Z</time></trkpt>
        <trkpt lat="28.774735" lon="104.607414"><ele>417.07623</ele><time>2026-04-18T00:45:26.000Z</time></trkpt>
        <trkpt lat="28.774703" lon="104.607452"><ele>417.18942</ele><time>2026-04-18T00:45:33.000Z</time></trkpt>
        <trkpt lat="28.7746" lon="104.60757"><ele>417.58405</ele><time>2026-04-18T00:45:47.000Z</time></trkpt>
        <trkpt lat="28.77458" lon="104.607623"><ele>417.66122</ele><time>2026-04-18T00:46:08.000Z</time></trkpt>
        <trkpt lat="28.774529" lon="104.607723"><ele>417.0981</ele><time>2026-04-18T00:46:18.000Z</time></trkpt>
        <trkpt lat="28.774486" lon="104.607767"><ele>416.54733</ele><time>2026-04-18T00:46:24.000Z</time></trkpt>
        <trkpt lat="28.774426" lon="104.607856"><ele>415.74268</ele><time>2026-04-18T00:46:30.000Z</time></trkpt>
        <trkpt lat="28.774395" lon="104.60791"><ele>415.12662</ele><time>2026-04-18T00:46:33.000Z</time></trkpt>
        <trkpt lat="28.774356" lon="104.607956"><ele>414.1536</ele><time>2026-04-18T00:46:36.000Z</time></trkpt>
        <trkpt lat="28.774346" lon="104.608063"><ele>412.36386</ele><time>2026-04-18T00:46:47.000Z</time></trkpt>
        <trkpt lat="28.774312" lon="104.608108"><ele>411.77188</ele><time>2026-04-18T00:46:53.000Z</time></trkpt>
        <trkpt lat="28.774293" lon="104.608155"><ele>411.5366</ele><time>2026-04-18T00:46:57.000Z</time></trkpt>
        <trkpt lat="28.774263" lon="104.608195"><ele>411.18372</ele><time>2026-04-18T00:47:03.000Z</time></trkpt>
        <trkpt lat="28.77422" lon="104.608224"><ele>410.66516</ele><time>2026-04-18T00:47:09.000Z</time></trkpt>
        <trkpt lat="28.774102" lon="104.608407"><ele>407.83682</ele><time>2026-04-18T00:47:22.000Z</time></trkpt>
        <trkpt lat="28.774037" lon="104.608539"><ele>405.30417</ele><time>2026-04-18T00:47:55.000Z</time></trkpt>
        <trkpt lat="28.774009" lon="104.608583"><ele>405.20245</ele><time>2026-04-18T00:48:00.000Z</time></trkpt>
        <trkpt lat="28.773995" lon="104.608699"><ele>404.3891</ele><time>2026-04-18T00:48:07.000Z</time></trkpt>
        <trkpt lat="28.773994" lon="104.60876"><ele>403.4309</ele><time>2026-04-18T00:48:12.000Z</time></trkpt>
        <trkpt lat="28.774001" lon="104.608815"><ele>402.2765</ele><time>2026-04-18T00:48:19.000Z</time></trkpt>
        <trkpt lat="28.774002" lon="104.608876"><ele>401.4974</ele><time>2026-04-18T00:48:23.000Z</time></trkpt>
        <trkpt lat="28.773976" lon="104.608941"><ele>399.93008</ele><time>2026-04-18T00:48:28.000Z</time></trkpt>
        <trkpt lat="28.773957" lon="104.60899"><ele>399.27048</ele><time>2026-04-18T00:48:33.000Z</time></trkpt>
        <trkpt lat="28.773953" lon="104.609049"><ele>399.2229</ele><time>2026-04-18T00:48:37.000Z</time></trkpt>
        <trkpt lat="28.773938" lon="104.6091"><ele>398.87646</ele><time>2026-04-18T00:48:41.000Z</time></trkpt>
        <trkpt lat="28.77386" lon="104.609164"><ele>398.15146</ele><time>2026-04-18T00:48:56.000Z</time></trkpt>
        <trkpt lat="28.773867" lon="104.609216"><ele>398.68643</ele><time>2026-04-18T00:49:00.000Z</time></trkpt>
        <trkpt lat="28.773881" lon="104.60927"><ele>399.19708</ele><time>2026-04-18T00:49:04.000Z</time></trkpt>
        <trkpt lat="28.773894" lon="104.609319"><ele>399.55646</ele><time>2026-04-18T00:49:08.000Z</time></trkpt>
        <trkpt lat="28.773893" lon="104.609373"><ele>399.716</ele><time>2026-04-18T00:49:12.000Z</time></trkpt>
        <trkpt lat="28.773899" lon="104.609429"><ele>399.1426</ele><time>2026-04-18T00:49:16.000Z</time></trkpt>
        <trkpt lat="28.773902" lon="104.609491"><ele>398.5633</ele><time>2026-04-18T00:49:21.000Z</time></trkpt>
        <trkpt lat="28.773876" lon="104.609547"><ele>397.25128</ele><time>2026-04-18T00:49:26.000Z</time></trkpt>
        <trkpt lat="28.773864" lon="104.609609"><ele>396.06262</ele><time>2026-04-18T00:49:30.000Z</time></trkpt>
        <trkpt lat="28.77385" lon="104.609674"><ele>395.1079</ele><time>2026-04-18T00:49:40.000Z</time></trkpt>
        <trkpt lat="28.773847" lon="104.609725"><ele>393.67783</ele><time>2026-04-18T00:49:52.000Z</time></trkpt>
        <trkpt lat="28.773895" lon="104.609731"><ele>394.99106</ele><time>2026-04-18T00:50:05.000Z</time></trkpt>
        <trkpt lat="28.773935" lon="104.609766"><ele>393.51434</ele><time>2026-04-18T00:50:35.000Z</time></trkpt>
        <trkpt lat="28.773925" lon="104.609821"><ele>394.96375</ele><time>2026-04-18T00:50:54.000Z</time></trkpt>
        <trkpt lat="28.773877" lon="104.609817"><ele>393.8123</ele><time>2026-04-18T00:52:59.000Z</time></trkpt>
        <trkpt lat="28.773882" lon="104.609764"><ele>393.95468</ele><time>2026-04-18T00:53:24.000Z</time></trkpt>
        <trkpt lat="28.773911" lon="104.609606"><ele>396.5347</ele><time>2026-04-18T00:53:39.000Z</time></trkpt>
        <trkpt lat="28.773912" lon="104.609551"><ele>397.4996</ele><time>2026-04-18T00:53:47.000Z</time></trkpt>
        <trkpt lat="28.773919" lon="104.609499"><ele>397.7072</ele><time>2026-04-18T00:53:54.000Z</time></trkpt>
        <trkpt lat="28.773913" lon="104.609439"><ele>397.36542</ele><time>2026-04-18T00:53:59.000Z</time></trkpt>
        <trkpt lat="28.77391" lon="104.609281"><ele>397.11697</ele><time>2026-04-18T00:54:07.000Z</time></trkpt>
        <trkpt lat="28.773895" lon="104.609227"><ele>397.8477</ele><time>2026-04-18T00:54:10.000Z</time></trkpt>
        <trkpt lat="28.773888" lon="104.609156"><ele>397.67508</ele><time>2026-04-18T00:54:13.000Z</time></trkpt>
        <trkpt lat="28.773903" lon="104.6091"><ele>398.3287</ele><time>2026-04-18T00:54:16.000Z</time></trkpt>
        <trkpt lat="28.773917" lon="104.609041"><ele>398.3356</ele><time>2026-04-18T00:54:19.000Z</time></trkpt>
        <trkpt lat="28.773992" lon="104.608978"><ele>398.63638</ele><time>2026-04-18T00:54:34.000Z</time></trkpt>
        <trkpt lat="28.773937" lon="104.609002"><ele>398.94528</ele><time>2026-04-18T00:54:39.000Z</time></trkpt>
        <trkpt lat="28.773885" lon="104.609069"><ele>397.39777</ele><time>2026-04-18T00:55:00.000Z</time></trkpt>
        <trkpt lat="28.773753" lon="104.609106"><ele>394.25302</ele><time>2026-04-18T00:55:50.000Z</time></trkpt>
        <trkpt lat="28.773713" lon="104.609161"><ele>392.379</ele><time>2026-04-18T00:55:54.000Z</time></trkpt>
        <trkpt lat="28.773656" lon="104.609278"><ele>391.36078</ele><time>2026-04-18T00:56:00.000Z</time></trkpt>
        <trkpt lat="28.773669" lon="104.609339"><ele>390.85083</ele><time>2026-04-18T00:56:03.000Z</time></trkpt>
        <trkpt lat="28.773674" lon="104.609391"><ele>390.69852</ele><time>2026-04-18T00:56:07.000Z</time></trkpt>
        <trkpt lat="28.773682" lon="104.60946"><ele>390.4273</ele><time>2026-04-18T00:56:10.000Z</time></trkpt>
        <trkpt lat="28.773659" lon="104.609523"><ele>389.82733</ele><time>2026-04-18T00:56:13.000Z</time></trkpt>
        <trkpt lat="28.77363" lon="104.609585"><ele>389.71716</ele><time>2026-04-18T00:56:16.000Z</time></trkpt>
        <trkpt lat="28.773594" lon="104.609648"><ele>388.69385</ele><time>2026-04-18T00:56:19.000Z</time></trkpt>
        <trkpt lat="28.773547" lon="104.609752"><ele>387.29343</ele><time>2026-04-18T00:56:27.000Z</time></trkpt>
        <trkpt lat="28.773516" lon="104.609807"><ele>386.2478</ele><time>2026-04-18T00:56:30.000Z</time></trkpt>
        <trkpt lat="28.773533" lon="104.609981"><ele>383.31314</ele><time>2026-04-18T00:56:52.000Z</time></trkpt>
        <trkpt lat="28.773513" lon="104.610039"><ele>382.1051</ele><time>2026-04-18T00:56:58.000Z</time></trkpt>
        <trkpt lat="28.773524" lon="104.610099"><ele>380.7471</ele><time>2026-04-18T00:57:04.000Z</time></trkpt>
        <trkpt lat="28.773522" lon="104.610151"><ele>379.86456</ele><time>2026-04-18T00:57:09.000Z</time></trkpt>
        <trkpt lat="28.773536" lon="104.610212"><ele>378.30814</ele><time>2026-04-18T00:57:14.000Z</time></trkpt>
        <trkpt lat="28.773576" lon="104.610245"><ele>377.91885</ele><time>2026-04-18T00:57:21.000Z</time></trkpt>
        <trkpt lat="28.773707" lon="104.610317"><ele>377.79913</ele><time>2026-04-18T00:57:31.000Z</time></trkpt>
        <trkpt lat="28.773753" lon="104.610358"><ele>378.5898</ele><time>2026-04-18T00:57:34.000Z</time></trkpt>
        <trkpt lat="28.773793" lon="104.610393"><ele>378.8932</ele><time>2026-04-18T00:57:37.000Z</time></trkpt>
        <trkpt lat="28.773746" lon="104.610537"><ele>375.33054</ele><time>2026-04-18T00:57:50.000Z</time></trkpt>
        <trkpt lat="28.773719" lon="104.610581"><ele>375.32382</ele><time>2026-04-18T00:57:54.000Z</time></trkpt>
        <trkpt lat="28.773673" lon="104.610688"><ele>373.5227</ele><time>2026-04-18T00:58:20.000Z</time></trkpt>
        <trkpt lat="28.77379" lon="104.610802"><ele>376.93756</ele><time>2026-04-18T00:58:39.000Z</time></trkpt>
        <trkpt lat="28.773829" lon="104.610851"><ele>377.39368</ele><time>2026-04-18T00:58:47.000Z</time></trkpt>
        <trkpt lat="28.774036" lon="104.610836"><ele>384.81256</ele><time>2026-04-18T00:59:06.000Z</time></trkpt>
        <trkpt lat="28.774085" lon="104.61084"><ele>386.6873</ele><time>2026-04-18T00:59:13.000Z</time></trkpt>
        <trkpt lat="28.774131" lon="104.61086"><ele>387.09344</ele><time>2026-04-18T00:59:18.000Z</time></trkpt>
        <trkpt lat="28.774189" lon="104.610893"><ele>388.19574</ele><time>2026-04-18T00:59:23.000Z</time></trkpt>
        <trkpt lat="28.774237" lon="104.610887"><ele>389.18164</ele><time>2026-04-18T00:59:28.000Z</time></trkpt>
        <trkpt lat="28.774283" lon="104.610876"><ele>388.38538</ele><time>2026-04-18T00:59:33.000Z</time></trkpt>
        <trkpt lat="28.77432" lon="104.61084"><ele>388.51028</ele><time>2026-04-18T00:59:37.000Z</time></trkpt>
        <trkpt lat="28.774375" lon="104.610855"><ele>388.0099</ele><time>2026-04-18T00:59:41.000Z</time></trkpt>
        <trkpt lat="28.774431" lon="104.610853"><ele>388.20578</ele><time>2026-04-18T00:59:46.000Z</time></trkpt>
        <trkpt lat="28.774473" lon="104.610824"><ele>388.35196</ele><time>2026-04-18T00:59:50.000Z</time></trkpt>
        <trkpt lat="28.774518" lon="104.61081"><ele>388.20392</ele><time>2026-04-18T00:59:54.000Z</time></trkpt>
        <trkpt lat="28.774572" lon="104.610778"><ele>388.3212</ele><time>2026-04-18T01:00:01.000Z</time></trkpt>
        <trkpt lat="28.774626" lon="104.610777"><ele>387.7688</ele><time>2026-04-18T01:00:06.000Z</time></trkpt>
        <trkpt lat="28.774669" lon="104.610793"><ele>387.39206</ele><time>2026-04-18T01:00:10.000Z</time></trkpt>
        <trkpt lat="28.77472" lon="104.610768"><ele>387.05954</ele><time>2026-04-18T01:00:14.000Z</time></trkpt>
        <trkpt lat="28.774766" lon="104.610767"><ele>386.7709</ele><time>2026-04-18T01:00:19.000Z</time></trkpt>
        <trkpt lat="28.77488" lon="104.610807"><ele>384.01434</ele><time>2026-04-18T01:00:29.000Z</time></trkpt>
        <trkpt lat="28.774981" lon="104.610804"><ele>384.49902</ele><time>2026-04-18T01:00:35.000Z</time></trkpt>
        <trkpt lat="28.775086" lon="104.610853"><ele>384.42075</ele><time>2026-04-18T01:00:43.000Z</time></trkpt>
        <trkpt lat="28.775137" lon="104.610857"><ele>383.65738</ele><time>2026-04-18T01:00:46.000Z</time></trkpt>
        <trkpt lat="28.77518" lon="104.610889"><ele>384.4282</ele><time>2026-04-18T01:00:50.000Z</time></trkpt>
        <trkpt lat="28.775218" lon="104.61093"><ele>384.96765</ele><time>2026-04-18T01:00:55.000Z</time></trkpt>
        <trkpt lat="28.775241" lon="104.610986"><ele>385.32306</ele><time>2026-04-18T01:01:00.000Z</time></trkpt>
        <trkpt lat="28.775246" lon="104.611046"><ele>385.14914</ele><time>2026-04-18T01:01:03.000Z</time></trkpt>
        <trkpt lat="28.775255" lon="104.611103"><ele>385.899</ele><time>2026-04-18T01:01:08.000Z</time></trkpt>
        <trkpt lat="28.77525" lon="104.611161"><ele>386.46646</ele><time>2026-04-18T01:01:12.000Z</time></trkpt>
        <trkpt lat="28.775257" lon="104.611212"><ele>386.3171</ele><time>2026-04-18T01:01:15.000Z</time></trkpt>
        <trkpt lat="28.775235" lon="104.611266"><ele>387.9607</ele><time>2026-04-18T01:01:25.000Z</time></trkpt>
        <trkpt lat="28.775211" lon="104.611321"><ele>388.43732</ele><time>2026-04-18T01:01:30.000Z</time></trkpt>
        <trkpt lat="28.775191" lon="104.611369"><ele>389.39426</ele><time>2026-04-18T01:01:34.000Z</time></trkpt>
        <trkpt lat="28.775219" lon="104.611409"><ele>389.80005</ele><time>2026-04-18T01:01:50.000Z</time></trkpt>
        <trkpt lat="28.775184" lon="104.611445"><ele>389.9936</ele><time>2026-04-18T01:02:02.000Z</time></trkpt>
        <trkpt lat="28.775107" lon="104.611509"><ele>391.2374</ele><time>2026-04-18T01:02:46.000Z</time></trkpt>
        <trkpt lat="28.775073" lon="104.61155"><ele>391.68765</ele><time>2026-04-18T01:02:52.000Z</time></trkpt>
        <trkpt lat="28.775039" lon="104.611585"><ele>391.11295</ele><time>2026-04-18T01:03:05.000Z</time></trkpt>
        <trkpt lat="28.775083" lon="104.611618"><ele>389.82477</ele><time>2026-04-18T01:03:12.000Z</time></trkpt>
        <trkpt lat="28.77513" lon="104.611622"><ele>389.86694</ele><time>2026-04-18T01:03:16.000Z</time></trkpt>
        <trkpt lat="28.775186" lon="104.611614"><ele>389.83936</ele><time>2026-04-18T01:03:24.000Z</time></trkpt>
        <trkpt lat="28.775229" lon="104.611654"><ele>389.46545</ele><time>2026-04-18T01:03:28.000Z</time></trkpt>
        <trkpt lat="28.775261" lon="104.6117"><ele>389.16367</ele><time>2026-04-18T01:03:31.000Z</time></trkpt>
        <trkpt lat="28.775268" lon="104.611753"><ele>389.52856</ele><time>2026-04-18T01:03:35.000Z</time></trkpt>
        <trkpt lat="28.775265" lon="104.611812"><ele>389.93628</ele><time>2026-04-18T01:03:40.000Z</time></trkpt>
        <trkpt lat="28.775235" lon="104.611854"><ele>389.73248</ele><time>2026-04-18T01:03:44.000Z</time></trkpt>
        <trkpt lat="28.775201" lon="104.611902"><ele>389.83392</ele><time>2026-04-18T01:03:49.000Z</time></trkpt>
        <trkpt lat="28.775177" lon="104.611952"><ele>390.05215</ele><time>2026-04-18T01:03:54.000Z</time></trkpt>
        <trkpt lat="28.77515" lon="104.612"><ele>390.46628</ele><time>2026-04-18T01:04:00.000Z</time></trkpt>
        <trkpt lat="28.775193" lon="104.612026"><ele>389.9197</ele><time>2026-04-18T01:04:14.000Z</time></trkpt>
        <trkpt lat="28.775237" lon="104.611991"><ele>390.30722</ele><time>2026-04-18T01:04:23.000Z</time></trkpt>
        <trkpt lat="28.775288" lon="104.61201"><ele>390.64014</ele><time>2026-04-18T01:04:35.000Z</time></trkpt>
        <trkpt lat="28.775334" lon="104.611999"><ele>390.62033</ele><time>2026-04-18T01:04:44.000Z</time></trkpt>
        <trkpt lat="28.775297" lon="104.612031"><ele>390.59937</ele><time>2026-04-18T01:04:47.000Z</time></trkpt>
        <trkpt lat="28.775251" lon="104.612049"><ele>389.27457</ele><time>2026-04-18T01:04:54.000Z</time></trkpt>
        <trkpt lat="28.775167" lon="104.612095"><ele>389.13956</ele><time>2026-04-18T01:05:00.000Z</time></trkpt>
        <trkpt lat="28.775201" lon="104.611975"><ele>389.48645</ele><time>2026-04-18T01:05:16.000Z</time></trkpt>
        <trkpt lat="28.775242" lon="104.611853"><ele>390.33545</ele><time>2026-04-18T01:05:24.000Z</time></trkpt>
        <trkpt lat="28.775277" lon="104.611811"><ele>390.07883</ele><time>2026-04-18T01:05:29.000Z</time></trkpt>
        <trkpt lat="28.775324" lon="104.611818"><ele>389.9907</ele><time>2026-04-18T01:05:34.000Z</time></trkpt>
        <trkpt lat="28.775365" lon="104.611845"><ele>389.6983</ele><time>2026-04-18T01:05:37.000Z</time></trkpt>
        <trkpt lat="28.775405" lon="104.611877"><ele>388.77496</ele><time>2026-04-18T01:05:40.000Z</time></trkpt>
        <trkpt lat="28.775438" lon="104.611923"><ele>389.3329</ele><time>2026-04-18T01:05:44.000Z</time></trkpt>
        <trkpt lat="28.77546" lon="104.61197"><ele>389.94116</ele><time>2026-04-18T01:05:47.000Z</time></trkpt>
        <trkpt lat="28.775493" lon="104.612013"><ele>389.0298</ele><time>2026-04-18T01:05:50.000Z</time></trkpt>
        <trkpt lat="28.775523" lon="104.612057"><ele>390.06284</ele><time>2026-04-18T01:05:54.000Z</time></trkpt>
        <trkpt lat="28.775565" lon="104.612088"><ele>390.0825</ele><time>2026-04-18T01:05:58.000Z</time></trkpt>
        <trkpt lat="28.775614" lon="104.612105"><ele>389.67328</ele><time>2026-04-18T01:06:03.000Z</time></trkpt>
        <trkpt lat="28.775574" lon="104.612063"><ele>390.84534</ele><time>2026-04-18T01:06:09.000Z</time></trkpt>
        <trkpt lat="28.775528" lon="104.612039"><ele>391.2886</ele><time>2026-04-18T01:06:13.000Z</time></trkpt>
        <trkpt lat="28.775491" lon="104.612007"><ele>391.20114</ele><time>2026-04-18T01:06:17.000Z</time></trkpt>
        <trkpt lat="28.775451" lon="104.611977"><ele>390.88095</ele><time>2026-04-18T01:06:20.000Z</time></trkpt>
        <trkpt lat="28.775417" lon="104.611939"><ele>390.70157</ele><time>2026-04-18T01:06:24.000Z</time></trkpt>
        <trkpt lat="28.775386" lon="104.611894"><ele>390.28506</ele><time>2026-04-18T01:06:28.000Z</time></trkpt>
        <trkpt lat="28.77536" lon="104.611837"><ele>389.92676</ele><time>2026-04-18T01:06:32.000Z</time></trkpt>
        <trkpt lat="28.775337" lon="104.611793"><ele>390.11185</ele><time>2026-04-18T01:06:35.000Z</time></trkpt>
        <trkpt lat="28.775308" lon="104.611753"><ele>390.03665</ele><time>2026-04-18T01:06:38.000Z</time></trkpt>
        <trkpt lat="28.775263" lon="104.611712"><ele>390.266</ele><time>2026-04-18T01:06:42.000Z</time></trkpt>
        <trkpt lat="28.775218" lon="104.611671"><ele>390.4786</ele><time>2026-04-18T01:06:46.000Z</time></trkpt>
        <trkpt lat="28.775179" lon="104.61164"><ele>390.2611</ele><time>2026-04-18T01:06:50.000Z</time></trkpt>
        <trkpt lat="28.775146" lon="104.611602"><ele>389.7776</ele><time>2026-04-18T01:06:57.000Z</time></trkpt>
        <trkpt lat="28.775085" lon="104.611597"><ele>389.68268</ele><time>2026-04-18T01:07:02.000Z</time></trkpt>
        <trkpt lat="28.775043" lon="104.611643"><ele>389.83914</ele><time>2026-04-18T01:07:07.000Z</time></trkpt>
        <trkpt lat="28.775012" lon="104.611696"><ele>389.46463</ele><time>2026-04-18T01:07:11.000Z</time></trkpt>
        <trkpt lat="28.774981" lon="104.611747"><ele>390.04645</ele><time>2026-04-18T01:07:15.000Z</time></trkpt>
        <trkpt lat="28.774954" lon="104.6118"><ele>389.88937</ele><time>2026-04-18T01:07:19.000Z</time></trkpt>
        <trkpt lat="28.774911" lon="104.611832"><ele>390.0997</ele><time>2026-04-18T01:07:24.000Z</time></trkpt>
        <trkpt lat="28.774884" lon="104.611874"><ele>390.3894</ele><time>2026-04-18T01:07:27.000Z</time></trkpt>
        <trkpt lat="28.774846" lon="104.611923"><ele>390.44858</ele><time>2026-04-18T01:07:31.000Z</time></trkpt>
        <trkpt lat="28.774818" lon="104.611978"><ele>389.87042</ele><time>2026-04-18T01:07:35.000Z</time></trkpt>
        <trkpt lat="28.774818" lon="104.612039"><ele>389.1685</ele><time>2026-04-18T01:07:48.000Z</time></trkpt>
        <trkpt lat="28.774846" lon="104.612094"><ele>388.25168</ele><time>2026-04-18T01:07:53.000Z</time></trkpt>
        <trkpt lat="28.774888" lon="104.612135"><ele>388.70938</ele><time>2026-04-18T01:07:56.000Z</time></trkpt>
        <trkpt lat="28.774973" lon="104.612269"><ele>388.44357</ele><time>2026-04-18T01:08:28.000Z</time></trkpt>
        <trkpt lat="28.774988" lon="104.61232"><ele>387.90735</ele><time>2026-04-18T01:08:33.000Z</time></trkpt>
        <trkpt lat="28.775001" lon="104.612371"><ele>387.44574</ele><time>2026-04-18T01:08:36.000Z</time></trkpt>
        <trkpt lat="28.775011" lon="104.612423"><ele>386.9659</ele><time>2026-04-18T01:08:39.000Z</time></trkpt>
        <trkpt lat="28.775014" lon="104.612474"><ele>386.5988</ele><time>2026-04-18T01:08:43.000Z</time></trkpt>
        <trkpt lat="28.775002" lon="104.612529"><ele>385.87982</ele><time>2026-04-18T01:08:48.000Z</time></trkpt>
        <trkpt lat="28.774999" lon="104.612586"><ele>385.28357</ele><time>2026-04-18T01:08:57.000Z</time></trkpt>
        <trkpt lat="28.774992" lon="104.612644"><ele>384.8628</ele><time>2026-04-18T01:09:03.000Z</time></trkpt>
        <trkpt lat="28.774989" lon="104.6127"><ele>383.94635</ele><time>2026-04-18T01:09:08.000Z</time></trkpt>
        <trkpt lat="28.775" lon="104.612756"><ele>383.8346</ele><time>2026-04-18T01:09:15.000Z</time></trkpt>
        <trkpt lat="28.775015" lon="104.612813"><ele>383.3835</ele><time>2026-04-18T01:09:20.000Z</time></trkpt>
        <trkpt lat="28.77501" lon="104.612871"><ele>382.88196</ele><time>2026-04-18T01:09:25.000Z</time></trkpt>
        <trkpt lat="28.775008" lon="104.612926"><ele>382.37744</ele><time>2026-04-18T01:09:28.000Z</time></trkpt>
        <trkpt lat="28.775004" lon="104.612986"><ele>381.46005</ele><time>2026-04-18T01:09:32.000Z</time></trkpt>
        <trkpt lat="28.775057" lon="104.613084"><ele>377.21997</ele><time>2026-04-18T01:09:47.000Z</time></trkpt>
        <trkpt lat="28.775091" lon="104.613127"><ele>375.8798</ele><time>2026-04-18T01:09:53.000Z</time></trkpt>
        <trkpt lat="28.775105" lon="104.613177"><ele>374.17853</ele><time>2026-04-18T01:09:59.000Z</time></trkpt>
        <trkpt lat="28.775062" lon="104.613225"><ele>373.64185</ele><time>2026-04-18T01:10:07.000Z</time></trkpt>
        <trkpt lat="28.774963" lon="104.613164"><ele>371.3823</ele><time>2026-04-18T01:10:15.000Z</time></trkpt>
        <trkpt lat="28.774913" lon="104.613144"><ele>369.65778</ele><time>2026-04-18T01:10:18.000Z</time></trkpt>
        <trkpt lat="28.774862" lon="104.613143"><ele>368.9705</ele><time>2026-04-18T01:10:21.000Z</time></trkpt>
        <trkpt lat="28.774808" lon="104.613153"><ele>368.28177</ele><time>2026-04-18T01:10:24.000Z</time></trkpt>
        <trkpt lat="28.774759" lon="104.613155"><ele>368.37964</ele><time>2026-04-18T01:10:27.000Z</time></trkpt>
        <trkpt lat="28.774722" lon="104.613187"><ele>368.34375</ele><time>2026-04-18T01:10:30.000Z</time></trkpt>
        <trkpt lat="28.774692" lon="104.613075"><ele>363.26825</ele><time>2026-04-18T01:11:35.000Z</time></trkpt>
        <trkpt lat="28.7746" lon="104.61299"><ele>366.02524</ele><time>2026-04-18T01:11:42.000Z</time></trkpt>
        <trkpt lat="28.774556" lon="104.61297"><ele>366.0285</ele><time>2026-04-18T01:11:45.000Z</time></trkpt>
        <trkpt lat="28.774517" lon="104.612928"><ele>365.98126</ele><time>2026-04-18T01:11:48.000Z</time></trkpt>
        <trkpt lat="28.774479" lon="104.612901"><ele>366.47003</ele><time>2026-04-18T01:11:51.000Z</time></trkpt>
        <trkpt lat="28.774438" lon="104.61287"><ele>367.80814</ele><time>2026-04-18T01:11:54.000Z</time></trkpt>
        <trkpt lat="28.774404" lon="104.612827"><ele>368.66998</ele><time>2026-04-18T01:11:57.000Z</time></trkpt>
        <trkpt lat="28.774315" lon="104.612821"><ele>377.00165</ele><time>2026-04-18T01:12:23.000Z</time></trkpt>
        <trkpt lat="28.774207" lon="104.612698"><ele>377.81873</ele><time>2026-04-18T01:12:44.000Z</time></trkpt>
        <trkpt lat="28.774134" lon="104.612463"><ele>385.54874</ele><time>2026-04-18T01:13:03.000Z</time></trkpt>
        <trkpt lat="28.774097" lon="104.612424"><ele>385.36105</ele><time>2026-04-18T01:13:07.000Z</time></trkpt>
        <trkpt lat="28.774068" lon="104.612383"><ele>386.13367</ele><time>2026-04-18T01:13:12.000Z</time></trkpt>
        <trkpt lat="28.774035" lon="104.612342"><ele>386.8335</ele><time>2026-04-18T01:13:18.000Z</time></trkpt>
        <trkpt lat="28.773982" lon="104.61226"><ele>386.68033</ele><time>2026-04-18T01:13:27.000Z</time></trkpt>
        <trkpt lat="28.773944" lon="104.612228"><ele>386.44473</ele><time>2026-04-18T01:13:31.000Z</time></trkpt>
        <trkpt lat="28.773906" lon="104.612184"><ele>386.10492</ele><time>2026-04-18T01:13:35.000Z</time></trkpt>
        <trkpt lat="28.773799" lon="104.611992"><ele>384.52994</ele><time>2026-04-18T01:13:50.000Z</time></trkpt>
        <trkpt lat="28.773772" lon="104.611937"><ele>384.1158</ele><time>2026-04-18T01:13:55.000Z</time></trkpt>
        <trkpt lat="28.773745" lon="104.611895"><ele>383.45844</ele><time>2026-04-18T01:14:03.000Z</time></trkpt>
        <trkpt lat="28.773775" lon="104.611943"><ele>382.24277</ele><time>2026-04-18T01:14:09.000Z</time></trkpt>
        <trkpt lat="28.773797" lon="104.611994"><ele>382.25272</ele><time>2026-04-18T01:14:13.000Z</time></trkpt>
        <trkpt lat="28.773801" lon="104.612065"><ele>382.897</ele><time>2026-04-18T01:14:18.000Z</time></trkpt>
        <trkpt lat="28.773828" lon="104.612123"><ele>385.55078</ele><time>2026-04-18T01:14:22.000Z</time></trkpt>
        <trkpt lat="28.773972" lon="104.612222"><ele>385.33557</ele><time>2026-04-18T01:14:33.000Z</time></trkpt>
        <trkpt lat="28.774008" lon="104.612299"><ele>385.58606</ele><time>2026-04-18T01:14:37.000Z</time></trkpt>
        <trkpt lat="28.774046" lon="104.612342"><ele>385.41727</ele><time>2026-04-18T01:14:41.000Z</time></trkpt>
        <trkpt lat="28.774092" lon="104.612373"><ele>385.76248</ele><time>2026-04-18T01:14:46.000Z</time></trkpt>
        <trkpt lat="28.774156" lon="104.612474"><ele>385.74738</ele><time>2026-04-18T01:14:52.000Z</time></trkpt>
        <trkpt lat="28.774187" lon="104.612537"><ele>385.13412</ele><time>2026-04-18T01:14:56.000Z</time></trkpt>
        <trkpt lat="28.774091" lon="104.612627"><ele>384.14896</ele><time>2026-04-18T01:15:30.000Z</time></trkpt>
        <trkpt lat="28.774045" lon="104.612598"><ele>386.0976</ele><time>2026-04-18T01:15:37.000Z</time></trkpt>
        <trkpt lat="28.773994" lon="104.612576"><ele>387.60727</ele><time>2026-04-18T01:15:41.000Z</time></trkpt>
        <trkpt lat="28.773945" lon="104.612523"><ele>387.66904</ele><time>2026-04-18T01:15:46.000Z</time></trkpt>
        <trkpt lat="28.773897" lon="104.6125"><ele>387.58652</ele><time>2026-04-18T01:15:49.000Z</time></trkpt>
        <trkpt lat="28.773819" lon="104.612441"><ele>387.38953</ele><time>2026-04-18T01:15:57.000Z</time></trkpt>
        <trkpt lat="28.773781" lon="104.612392"><ele>385.8985</ele><time>2026-04-18T01:16:02.000Z</time></trkpt>
        <trkpt lat="28.773751" lon="104.61234"><ele>385.3903</ele><time>2026-04-18T01:16:06.000Z</time></trkpt>
        <trkpt lat="28.773723" lon="104.612292"><ele>384.6469</ele><time>2026-04-18T01:16:10.000Z</time></trkpt>
        <trkpt lat="28.773693" lon="104.612252"><ele>382.58722</ele><time>2026-04-18T01:16:14.000Z</time></trkpt>
        <trkpt lat="28.773603" lon="104.612204"><ele>381.13104</ele><time>2026-04-18T01:16:21.000Z</time></trkpt>
        <trkpt lat="28.773553" lon="104.612182"><ele>380.007</ele><time>2026-04-18T01:16:27.000Z</time></trkpt>
        <trkpt lat="28.773494" lon="104.612173"><ele>378.7042</ele><time>2026-04-18T01:16:31.000Z</time></trkpt>
        <trkpt lat="28.773442" lon="104.612178"><ele>378.62924</ele><time>2026-04-18T01:16:34.000Z</time></trkpt>
        <trkpt lat="28.7734" lon="104.612157"><ele>378.28574</ele><time>2026-04-18T01:16:37.000Z</time></trkpt>
        <trkpt lat="28.77332" lon="104.612213"><ele>379.64764</ele><time>2026-04-18T01:17:45.000Z</time></trkpt>
        <trkpt lat="28.773273" lon="104.612127"><ele>376.05917</ele><time>2026-04-18T01:18:17.000Z</time></trkpt>
        <trkpt lat="28.773226" lon="104.612153"><ele>374.6637</ele><time>2026-04-18T01:18:24.000Z</time></trkpt>
        <trkpt lat="28.773175" lon="104.612155"><ele>373.95688</ele><time>2026-04-18T01:18:30.000Z</time></trkpt>
        <trkpt lat="28.773036" lon="104.612245"><ele>370.88443</ele><time>2026-04-18T01:18:44.000Z</time></trkpt>
        <trkpt lat="28.772994" lon="104.612281"><ele>368.84473</ele><time>2026-04-18T01:18:50.000Z</time></trkpt>
        <trkpt lat="28.772939" lon="104.61242"><ele>368.0724</ele><time>2026-04-18T01:18:57.000Z</time></trkpt>
        <trkpt lat="28.772937" lon="104.612304"><ele>362.12375</ele><time>2026-04-18T01:19:17.000Z</time></trkpt>
        <trkpt lat="28.772921" lon="104.612254"><ele>359.91367</ele><time>2026-04-18T01:19:23.000Z</time></trkpt>
        <trkpt lat="28.772879" lon="104.612214"><ele>358.08337</ele><time>2026-04-18T01:19:29.000Z</time></trkpt>
        <trkpt lat="28.772847" lon="104.612171"><ele>355.82156</ele><time>2026-04-18T01:19:37.000Z</time></trkpt>
        <trkpt lat="28.772844" lon="104.612118"><ele>353.907</ele><time>2026-04-18T01:19:44.000Z</time></trkpt>
        <trkpt lat="28.772781" lon="104.612053"><ele>352.68784</ele><time>2026-04-18T01:19:55.000Z</time></trkpt>
        <trkpt lat="28.772725" lon="104.612016"><ele>349.3555</ele><time>2026-04-18T01:20:06.000Z</time></trkpt>
        <trkpt lat="28.772726" lon="104.611945"><ele>346.6496</ele><time>2026-04-18T01:20:14.000Z</time></trkpt>
        <trkpt lat="28.772724" lon="104.611889"><ele>345.73575</ele><time>2026-04-18T01:20:21.000Z</time></trkpt>
        <trkpt lat="28.77264" lon="104.61191"><ele>344.48474</ele><time>2026-04-18T01:20:40.000Z</time></trkpt>
        <trkpt lat="28.772661" lon="104.611847"><ele>341.4669</ele><time>2026-04-18T01:20:53.000Z</time></trkpt>
        <trkpt lat="28.772639" lon="104.611893"><ele>342.05814</ele><time>2026-04-18T01:21:10.000Z</time></trkpt>
        <trkpt lat="28.772608" lon="104.611854"><ele>340.6808</ele><time>2026-04-18T01:21:17.000Z</time></trkpt>
        <trkpt lat="28.772567" lon="104.611857"><ele>336.8874</ele><time>2026-04-18T01:21:26.000Z</time></trkpt>
        <trkpt lat="28.772532" lon="104.611889"><ele>334.55597</ele><time>2026-04-18T01:21:43.000Z</time></trkpt>
        <trkpt lat="28.772486" lon="104.611903"><ele>332.43372</ele><time>2026-04-18T01:21:51.000Z</time></trkpt>
        <trkpt lat="28.772438" lon="104.611888"><ele>330.70462</ele><time>2026-04-18T01:21:58.000Z</time></trkpt>
        <trkpt lat="28.772416" lon="104.61187"><ele>327.43405</ele><time>2026-04-18T01:22:19.000Z</time></trkpt>
        <trkpt lat="28.772362" lon="104.611903"><ele>325.95325</ele><time>2026-04-18T01:22:32.000Z</time></trkpt>
        <trkpt lat="28.772358" lon="104.611959"><ele>325.78244</ele><time>2026-04-18T01:22:39.000Z</time></trkpt>
        <trkpt lat="28.772322" lon="104.612004"><ele>324.41852</ele><time>2026-04-18T01:22:45.000Z</time></trkpt>
        <trkpt lat="28.772306" lon="104.612056"><ele>323.9653</ele><time>2026-04-18T01:22:52.000Z</time></trkpt>
        <trkpt lat="28.772261" lon="104.61209"><ele>324.82916</ele><time>2026-04-18T01:22:57.000Z</time></trkpt>
        <trkpt lat="28.772216" lon="104.612108"><ele>325.3892</ele><time>2026-04-18T01:23:02.000Z</time></trkpt>
        <trkpt lat="28.772128" lon="104.612135"><ele>327.59183</ele><time>2026-04-18T01:23:09.000Z</time></trkpt>
        <trkpt lat="28.772082" lon="104.612187"><ele>328.50806</ele><time>2026-04-18T01:23:28.000Z</time></trkpt>
        <trkpt lat="28.772124" lon="104.612155"><ele>329.58237</ele><time>2026-04-18T01:23:33.000Z</time></trkpt>
        <trkpt lat="28.772175" lon="104.612153"><ele>330.02985</ele><time>2026-04-18T01:23:37.000Z</time></trkpt>
        <trkpt lat="28.772206" lon="104.612112"><ele>329.83713</ele><time>2026-04-18T01:23:42.000Z</time></trkpt>
        <trkpt lat="28.772243" lon="104.612077"><ele>327.90915</ele><time>2026-04-18T01:23:52.000Z</time></trkpt>
        <trkpt lat="28.772388" lon="104.611995"><ele>328.6568</ele><time>2026-04-18T01:24:02.000Z</time></trkpt>
        <trkpt lat="28.772344" lon="104.612017"><ele>327.80255</ele><time>2026-04-18T01:24:05.000Z</time></trkpt>
        <trkpt lat="28.772236" lon="104.61205"><ele>325.50626</ele><time>2026-04-18T01:24:11.000Z</time></trkpt>
        <trkpt lat="28.772194" lon="104.612094"><ele>324.75134</ele><time>2026-04-18T01:24:15.000Z</time></trkpt>
        <trkpt lat="28.772165" lon="104.612141"><ele>325.50464</ele><time>2026-04-18T01:24:18.000Z</time></trkpt>
        <trkpt lat="28.772125" lon="104.612192"><ele>327.56808</ele><time>2026-04-18T01:24:23.000Z</time></trkpt>
        <trkpt lat="28.772078" lon="104.61221"><ele>328.04437</ele><time>2026-04-18T01:24:27.000Z</time></trkpt>
        <trkpt lat="28.772031" lon="104.612229"><ele>328.47726</ele><time>2026-04-18T01:24:30.000Z</time></trkpt>
        <trkpt lat="28.771986" lon="104.61225"><ele>327.52728</ele><time>2026-04-18T01:24:34.000Z</time></trkpt>
        <trkpt lat="28.771946" lon="104.612282"><ele>326.41605</ele><time>2026-04-18T01:24:37.000Z</time></trkpt>
        <trkpt lat="28.771912" lon="104.61233"><ele>325.30798</ele><time>2026-04-18T01:24:41.000Z</time></trkpt>
        <trkpt lat="28.77182" lon="104.612375"><ele>323.98398</ele><time>2026-04-18T01:24:49.000Z</time></trkpt>
        <trkpt lat="28.771787" lon="104.612418"><ele>323.57877</ele><time>2026-04-18T01:24:53.000Z</time></trkpt>
        <trkpt lat="28.771759" lon="104.612476"><ele>322.5522</ele><time>2026-04-18T01:24:57.000Z</time></trkpt>
        <trkpt lat="28.771717" lon="104.612517"><ele>321.6193</ele><time>2026-04-18T01:25:01.000Z</time></trkpt>
        <trkpt lat="28.771692" lon="104.61256"><ele>320.7904</ele><time>2026-04-18T01:25:04.000Z</time></trkpt>
        <trkpt lat="28.771666" lon="104.612611"><ele>319.80447</ele><time>2026-04-18T01:25:07.000Z</time></trkpt>
        <trkpt lat="28.771588" lon="104.612673"><ele>315.24252</ele><time>2026-04-18T01:25:14.000Z</time></trkpt>
        <trkpt lat="28.77149" lon="104.612695"><ele>311.8417</ele><time>2026-04-18T01:25:20.000Z</time></trkpt>
        <trkpt lat="28.771413" lon="104.612768"><ele>309.56058</ele><time>2026-04-18T01:25:27.000Z</time></trkpt>
        <trkpt lat="28.771359" lon="104.612745"><ele>309.27176</ele><time>2026-04-18T01:25:31.000Z</time></trkpt>
        <trkpt lat="28.771452" lon="104.612634"><ele>310.63196</ele><time>2026-04-18T01:25:44.000Z</time></trkpt>
        <trkpt lat="28.771477" lon="104.612687"><ele>311.0189</ele><time>2026-04-18T01:26:00.000Z</time></trkpt>
        <trkpt lat="28.771431" lon="104.612874"><ele>332.4222</ele><time>2026-04-18T01:26:21.000Z</time></trkpt>
        <trkpt lat="28.771514" lon="104.612764"><ele>310.37405</ele><time>2026-04-18T01:26:50.000Z</time></trkpt>
        <trkpt lat="28.77145" lon="104.612732"><ele>306.7</ele><time>2026-04-18T01:27:03.000Z</time></trkpt>
        <trkpt lat="28.771433" lon="104.612739"><ele>308.39517</ele><time>2026-04-18T01:27:41.000Z</time></trkpt>
        <trkpt lat="28.771413" lon="104.612687"><ele>310.38376</ele><time>2026-04-18T01:27:51.000Z</time></trkpt>
        <trkpt lat="28.771361" lon="104.612789"><ele>311.0641</ele><time>2026-04-18T01:28:00.000Z</time></trkpt>
        <trkpt lat="28.77133" lon="104.612843"><ele>308.4446</ele><time>2026-04-18T01:28:05.000Z</time></trkpt>
        <trkpt lat="28.771311" lon="104.612899"><ele>308.56903</ele><time>2026-04-18T01:28:09.000Z</time></trkpt>
        <trkpt lat="28.771275" lon="104.612946"><ele>306.7194</ele><time>2026-04-18T01:28:14.000Z</time></trkpt>
        <trkpt lat="28.771278" lon="104.613064"><ele>303.63538</ele><time>2026-04-18T01:28:24.000Z</time></trkpt>
        <trkpt lat="28.771258" lon="104.613121"><ele>301.4445</ele><time>2026-04-18T01:28:29.000Z</time></trkpt>
        <trkpt lat="28.771259" lon="104.613179"><ele>300.12027</ele><time>2026-04-18T01:28:33.000Z</time></trkpt>
        <trkpt lat="28.771251" lon="104.613299"><ele>299.41724</ele><time>2026-04-18T01:28:41.000Z</time></trkpt>
        <trkpt lat="28.771219" lon="104.613337"><ele>298.46606</ele><time>2026-04-18T01:28:46.000Z</time></trkpt>
        <trkpt lat="28.771184" lon="104.613379"><ele>297.81647</ele><time>2026-04-18T01:28:51.000Z</time></trkpt>
      </trkseg>
  </trk>
</gpx>